<?xml version="1.0" encoding="UTF-8" standalone="no" ?>
<gpx xmlns="http://www.topografix.com/GPX/1/1" xmlns:xsi="http://www.w3.org/2001/XMLSchema-instance" xsi:schemaLocation="http://www.topografix.com/GPX/1/1 http://www.topografix.com/GPX/1/1/gpx.xsd" version="1.1" creator="VisuGPX - https://www.visugpx.com">
  <metadata>
    <name>Bikepacking MAI 2022</name>
  </metadata>
  <trk>
    <name><![CDATA[Variante 2]]></name>
    <extensions>
      <line xmlns="http://www.topografix.com/GPX/gpx_style/0/2">
        <color>ff00d0</color>
        <width>4</width>
      </line>
    </extensions>
    <trkseg>
      <trkpt lat="44.97755" lon="-1.0781">
        <ele>17.192226</ele>
        <time>2022-01-18T12:26:25.998Z</time>
      </trkpt>
      <trkpt lat="44.97775" lon="-1.07821">
        <ele>17.192226</ele>
        <time>2022-01-18T12:26:30.402Z</time>
      </trkpt>
      <trkpt lat="44.97777" lon="-1.07829">
        <ele>17.192226</ele>
        <time>2022-01-18T12:26:31.596Z</time>
      </trkpt>
      <trkpt lat="44.97758" lon="-1.079">
        <ele>17.192226</ele>
        <time>2022-01-18T12:26:42.691Z</time>
      </trkpt>
      <trkpt lat="44.97732" lon="-1.07885">
        <ele>17.149118</ele>
        <time>2022-01-18T12:26:46.846Z</time>
      </trkpt>
      <trkpt lat="44.97647" lon="-1.07837">
        <ele>16.939892</ele>
        <time>2022-01-18T12:27:00.408Z</time>
      </trkpt>
      <trkpt lat="44.97625" lon="-1.07825">
        <ele>16.886252</ele>
        <time>2022-01-18T12:27:03.865Z</time>
      </trkpt>
      <trkpt lat="44.97569" lon="-1.07791">
        <ele>16.789844</ele>
        <time>2022-01-18T12:27:12.741Z</time>
      </trkpt>
      <trkpt lat="44.97499" lon="-1.07761">
        <ele>16.823091</ele>
        <time>2022-01-18T12:27:23.712Z</time>
      </trkpt>
      <trkpt lat="44.97441" lon="-1.07736">
        <ele>16.850455</ele>
        <time>2022-01-18T12:27:32.991Z</time>
      </trkpt>
      <trkpt lat="44.97265" lon="-1.07657">
        <ele>17.678959</ele>
        <time>2022-01-18T12:28:05.851Z</time>
      </trkpt>
      <trkpt lat="44.97253" lon="-1.07652">
        <ele>17.748835</ele>
        <time>2022-01-18T12:28:08.111Z</time>
      </trkpt>
      <trkpt lat="44.9716" lon="-1.07611">
        <ele>17.861225</ele>
        <time>2022-01-18T12:28:24.201Z</time>
      </trkpt>
      <trkpt lat="44.97161" lon="-1.07604">
        <ele>17.864077</ele>
        <time>2022-01-18T12:28:25.054Z</time>
      </trkpt>
      <trkpt lat="44.97158" lon="-1.07555">
        <ele>17.881933</ele>
        <time>2022-01-18T12:28:30.698Z</time>
      </trkpt>
      <trkpt lat="44.97127" lon="-1.07391">
        <ele>17.903327</ele>
        <time>2022-01-18T12:28:49.283Z</time>
      </trkpt>
      <trkpt lat="44.97062" lon="-1.07135">
        <ele>18.689007</ele>
        <time>2022-01-18T12:29:21.678Z</time>
      </trkpt>
      <trkpt lat="44.97056" lon="-1.07114">
        <ele>18.859213</ele>
        <time>2022-01-18T12:29:25.200Z</time>
      </trkpt>
      <trkpt lat="44.9703" lon="-1.0706">
        <ele>19.337965</ele>
        <time>2022-01-18T12:29:34.993Z</time>
      </trkpt>
      <trkpt lat="44.96963" lon="-1.06956">
        <ele>20.73081</ele>
        <time>2022-01-18T12:29:59.145Z</time>
      </trkpt>
      <trkpt lat="44.96893" lon="-1.06851">
        <ele>22.417663</ele>
        <time>2022-01-18T12:30:22.895Z</time>
      </trkpt>
      <trkpt lat="44.96884" lon="-1.06837">
        <ele>22.646515</ele>
        <time>2022-01-18T12:30:26.029Z</time>
      </trkpt>
      <trkpt lat="44.96779" lon="-1.06688">
        <ele>23.3565</ele>
        <time>2022-01-18T12:30:54.065Z</time>
      </trkpt>
      <trkpt lat="44.96775" lon="-1.06692">
        <ele>23.376308</ele>
        <time>2022-01-18T12:30:54.794Z</time>
      </trkpt>
      <trkpt lat="44.96469" lon="-1.06451">
        <ele>21.156495</ele>
        <time>2022-01-18T12:31:46.008Z</time>
      </trkpt>
      <trkpt lat="44.96265" lon="-1.06253">
        <ele>19.572166</ele>
        <time>2022-01-18T12:32:22.820Z</time>
      </trkpt>
      <trkpt lat="44.96243" lon="-1.06226">
        <ele>19.435308</ele>
        <time>2022-01-18T12:32:27.180Z</time>
      </trkpt>
      <trkpt lat="44.96175" lon="-1.06158">
        <ele>19.045715</ele>
        <time>2022-01-18T12:32:39.734Z</time>
      </trkpt>
      <trkpt lat="44.96118" lon="-1.06099">
        <ele>18.886522</ele>
        <time>2022-01-18T12:32:57.114Z</time>
      </trkpt>
      <trkpt lat="44.95714" lon="-1.05699">
        <ele>19.662672</ele>
        <time>2022-01-18T12:35:06.345Z</time>
      </trkpt>
      <trkpt lat="44.95672" lon="-1.05621">
        <ele>19.879114</ele>
        <time>2022-01-18T12:35:24.949Z</time>
      </trkpt>
      <trkpt lat="44.9566" lon="-1.05613">
        <ele>19.922961</ele>
        <time>2022-01-18T12:35:28.362Z</time>
      </trkpt>
      <trkpt lat="44.95579" lon="-1.05596">
        <ele>20.206307</ele>
        <time>2022-01-18T12:35:50.562Z</time>
      </trkpt>
      <trkpt lat="44.95573" lon="-1.05587">
        <ele>20.235654</ele>
        <time>2022-01-18T12:35:52.932Z</time>
      </trkpt>
      <trkpt lat="44.95575" lon="-1.05575">
        <ele>20.26687</ele>
        <time>2022-01-18T12:35:55.358Z</time>
      </trkpt>
      <trkpt lat="44.95576" lon="-1.05553">
        <ele>20.321136</ele>
        <time>2022-01-18T12:35:59.589Z</time>
      </trkpt>
      <trkpt lat="44.95551" lon="-1.05375">
        <ele>20.744435</ele>
        <time>2022-01-18T12:36:34.103Z</time>
      </trkpt>
      <trkpt lat="44.95308" lon="-1.04021">
        <ele>23.323021</ele>
        <time>2022-01-18T12:40:54.327Z</time>
      </trkpt>
      <trkpt lat="44.95192" lon="-1.03387">
        <ele>26.317411</ele>
        <time>2022-01-18T12:43:06.686Z</time>
      </trkpt>
      <trkpt lat="44.95051" lon="-1.02634">
        <ele>25.31295</ele>
        <time>2022-01-18T12:45:23.152Z</time>
      </trkpt>
      <trkpt lat="44.95019" lon="-1.02374">
        <ele>25.97482</ele>
        <time>2022-01-18T12:46:13.231Z</time>
      </trkpt>
      <trkpt lat="44.95027" lon="-1.02179">
        <ele>27.162766</ele>
        <time>2022-01-18T12:46:53.651Z</time>
      </trkpt>
      <trkpt lat="44.95069" lon="-1.01868">
        <ele>29.142883</ele>
        <time>2022-01-18T12:47:59.955Z</time>
      </trkpt>
      <trkpt lat="44.95199" lon="-1.01082">
        <ele>30.117653</ele>
        <time>2022-01-18T12:50:28.013Z</time>
      </trkpt>
      <trkpt lat="44.95432" lon="-0.99634">
        <ele>31.983539</ele>
        <time>2022-01-18T12:55:02.337Z</time>
      </trkpt>
      <trkpt lat="44.95596" lon="-0.98609">
        <ele>32.866816</ele>
        <time>2022-01-18T12:58:15.267Z</time>
      </trkpt>
      <trkpt lat="44.95223" lon="-0.9819">
        <ele>32.747629</ele>
        <time>2022-01-18T13:00:16.261Z</time>
      </trkpt>
      <trkpt lat="44.95177" lon="-0.98115">
        <ele>32.644983</ele>
        <time>2022-01-18T13:00:33.621Z</time>
      </trkpt>
      <trkpt lat="44.95082" lon="-0.9794">
        <ele>32.301901</ele>
        <time>2022-01-18T13:01:12.302Z</time>
      </trkpt>
      <trkpt lat="44.95008" lon="-0.97792">
        <ele>32.550155</ele>
        <time>2022-01-18T13:01:45.731Z</time>
      </trkpt>
      <trkpt lat="44.9499" lon="-0.97762">
        <ele>32.608644</ele>
        <time>2022-01-18T13:01:53.250Z</time>
      </trkpt>
      <trkpt lat="44.94887" lon="-0.97633">
        <ele>33.28296</ele>
        <time>2022-01-18T13:02:30.998Z</time>
      </trkpt>
      <trkpt lat="44.94864" lon="-0.97611">
        <ele>33.44111</ele>
        <time>2022-01-18T13:02:38.728Z</time>
      </trkpt>
      <trkpt lat="44.94203" lon="-0.97251">
        <ele>38.06277</ele>
        <time>2022-01-18T13:05:57.460Z</time>
      </trkpt>
      <trkpt lat="44.94197" lon="-0.97247">
        <ele>38.103738</ele>
        <time>2022-01-18T13:05:59.483Z</time>
      </trkpt>
      <trkpt lat="44.94042" lon="-0.97161">
        <ele>38.739455</ele>
        <time>2022-01-18T13:06:45.404Z</time>
      </trkpt>
      <trkpt lat="44.93673" lon="-0.96957">
        <ele>38.63487</ele>
        <time>2022-01-18T13:08:24.807Z</time>
      </trkpt>
      <trkpt lat="44.9366" lon="-0.96951">
        <ele>38.629595</ele>
        <time>2022-01-18T13:08:28.173Z</time>
      </trkpt>
      <trkpt lat="44.93539" lon="-0.96885">
        <ele>38.904852</ele>
        <time>2022-01-18T13:09:03.291Z</time>
      </trkpt>
      <trkpt lat="44.92836" lon="-0.96499">
        <ele>39.62744</ele>
        <time>2022-01-18T13:12:17.833Z</time>
      </trkpt>
      <trkpt lat="44.92786" lon="-0.96473">
        <ele>39.633784</ele>
        <time>2022-01-18T13:12:31.077Z</time>
      </trkpt>
      <trkpt lat="44.92784" lon="-0.96477">
        <ele>39.633022</ele>
        <time>2022-01-18T13:12:31.647Z</time>
      </trkpt>
      <trkpt lat="44.92707" lon="-0.96432">
        <ele>39.614683</ele>
        <time>2022-01-18T13:12:52.835Z</time>
      </trkpt>
      <trkpt lat="44.92633" lon="-0.96322">
        <ele>39.590742</ele>
        <time>2022-01-18T13:13:20.081Z</time>
      </trkpt>
      <trkpt lat="44.92557" lon="-0.96207">
        <ele>39.565434</ele>
        <time>2022-01-18T13:13:48.487Z</time>
      </trkpt>
      <trkpt lat="44.91784" lon="-0.95045">
        <ele>38.334701</ele>
        <time>2022-01-18T13:18:32.535Z</time>
      </trkpt>
      <trkpt lat="44.91761" lon="-0.9502">
        <ele>38.264203</ele>
        <time>2022-01-18T13:18:39.587Z</time>
      </trkpt>
      <trkpt lat="44.91742" lon="-0.95005">
        <ele>38.209858</ele>
        <time>2022-01-18T13:18:45.015Z</time>
      </trkpt>
      <trkpt lat="44.91628" lon="-0.94881">
        <ele>38.022759</ele>
        <time>2022-01-18T13:19:20.673Z</time>
      </trkpt>
      <trkpt lat="44.91266" lon="-0.94466">
        <ele>39.253389</ele>
        <time>2022-01-18T13:21:24.519Z</time>
      </trkpt>
      <trkpt lat="44.91263" lon="-0.94455">
        <ele>39.284083</ele>
        <time>2022-01-18T13:21:26.878Z</time>
      </trkpt>
      <trkpt lat="44.91383" lon="-0.94351">
        <ele>39.876075</ele>
        <time>2022-01-18T13:22:06.286Z</time>
      </trkpt>
      <trkpt lat="44.91793" lon="-0.93997">
        <ele>40.646391</ele>
        <time>2022-01-18T13:24:10.500Z</time>
      </trkpt>
      <trkpt lat="44.91923" lon="-0.93886">
        <ele>40.984556</ele>
        <time>2022-01-18T13:24:50.149Z</time>
      </trkpt>
      <trkpt lat="44.91792" lon="-0.93648">
        <ele>41.669743</ele>
        <time>2022-01-18T13:25:48.714Z</time>
      </trkpt>
      <trkpt lat="44.91789" lon="-0.93644">
        <ele>41.673266</ele>
        <time>2022-01-18T13:25:49.621Z</time>
      </trkpt>
      <trkpt lat="44.91785" lon="-0.93636">
        <ele>41.680368</ele>
        <time>2022-01-18T13:25:51.409Z</time>
      </trkpt>
      <trkpt lat="44.91736" lon="-0.93547">
        <ele>41.763411</ele>
        <time>2022-01-18T13:26:11.830Z</time>
      </trkpt>
      <trkpt lat="44.91669" lon="-0.93423">
        <ele>41.707027</ele>
        <time>2022-01-18T13:26:39.125Z</time>
      </trkpt>
      <trkpt lat="44.91574" lon="-0.93269">
        <ele>41.627919</ele>
        <time>2022-01-18T13:27:15.881Z</time>
      </trkpt>
      <trkpt lat="44.91569" lon="-0.9325">
        <ele>41.636204</ele>
        <time>2022-01-18T13:27:19.614Z</time>
      </trkpt>
      <trkpt lat="44.91493" lon="-0.92136">
        <ele>42.14655</ele>
        <time>2022-01-18T13:30:42.761Z</time>
      </trkpt>
      <trkpt lat="44.91491" lon="-0.92099">
        <ele>42.172289</ele>
        <time>2022-01-18T13:30:49.670Z</time>
      </trkpt>
      <trkpt lat="44.90712" lon="-0.9177">
        <ele>44.549401</ele>
        <time>2022-01-18T13:34:25.559Z</time>
      </trkpt>
      <trkpt lat="44.90621" lon="-0.90932">
        <ele>47.132849</ele>
        <time>2022-01-18T13:37:10.634Z</time>
      </trkpt>
      <trkpt lat="44.90523" lon="-0.90028">
        <ele>45.095026</ele>
        <time>2022-01-18T13:39:48.816Z</time>
      </trkpt>
      <trkpt lat="44.90473" lon="-0.89586">
        <ele>46.74355</ele>
        <time>2022-01-18T13:41:18.732Z</time>
      </trkpt>
      <trkpt lat="44.90468" lon="-0.89558">
        <ele>46.764699</ele>
        <time>2022-01-18T13:41:24.414Z</time>
      </trkpt>
      <trkpt lat="44.90327" lon="-0.88903">
        <ele>47.028099</ele>
        <time>2022-01-18T13:43:27.796Z</time>
      </trkpt>
      <trkpt lat="44.90259" lon="-0.8859">
        <ele>46.665465</ele>
        <time>2022-01-18T13:44:25.115Z</time>
      </trkpt>
      <trkpt lat="44.90873" lon="-0.87916">
        <ele>47.911223</ele>
        <time>2022-01-18T13:47:47.060Z</time>
      </trkpt>
      <trkpt lat="44.90887" lon="-0.87901">
        <ele>48.005622</ele>
        <time>2022-01-18T13:47:51.958Z</time>
      </trkpt>
      <trkpt lat="44.90781" lon="-0.8718">
        <ele>52.106417</ele>
        <time>2022-01-18T13:50:26.051Z</time>
      </trkpt>
      <trkpt lat="44.90614" lon="-0.86032">
        <ele>45.022666</ele>
        <time>2022-01-18T13:53:40.448Z</time>
      </trkpt>
      <trkpt lat="44.9059" lon="-0.85871">
        <ele>44.334692</ele>
        <time>2022-01-18T13:54:08.324Z</time>
      </trkpt>
      <trkpt lat="44.90586" lon="-0.84479">
        <ele>45.090846</ele>
        <time>2022-01-18T13:58:23.478Z</time>
      </trkpt>
      <trkpt lat="44.90585" lon="-0.84217">
        <ele>44.945987</ele>
        <time>2022-01-18T13:59:09.957Z</time>
      </trkpt>
      <trkpt lat="44.90583" lon="-0.83921">
        <ele>44.868201</ele>
        <time>2022-01-18T14:00:03.072Z</time>
      </trkpt>
      <trkpt lat="44.90582" lon="-0.83651">
        <ele>45.193375</ele>
        <time>2022-01-18T14:00:52.582Z</time>
      </trkpt>
      <trkpt lat="44.90581" lon="-0.83387">
        <ele>45.776763</ele>
        <time>2022-01-18T14:01:43.895Z</time>
      </trkpt>
      <trkpt lat="44.90581" lon="-0.8337">
        <ele>45.816414</ele>
        <time>2022-01-18T14:01:47.266Z</time>
      </trkpt>
      <trkpt lat="44.90578" lon="-0.83316">
        <ele>45.936644</ele>
        <time>2022-01-18T14:01:57.251Z</time>
      </trkpt>
      <trkpt lat="44.90551" lon="-0.83194">
        <ele>45.706991</ele>
        <time>2022-01-18T14:02:20.081Z</time>
      </trkpt>
      <trkpt lat="44.90434" lon="-0.82671">
        <ele>44.049234</ele>
        <time>2022-01-18T14:03:53.673Z</time>
      </trkpt>
      <trkpt lat="44.90434" lon="-0.82667">
        <ele>44.04321</ele>
        <time>2022-01-18T14:03:54.414Z</time>
      </trkpt>
      <trkpt lat="44.90291" lon="-0.82032">
        <ele>44.578966</ele>
        <time>2022-01-18T14:05:58.177Z</time>
      </trkpt>
      <trkpt lat="44.9029" lon="-0.82025">
        <ele>44.586534</ele>
        <time>2022-01-18T14:05:59.491Z</time>
      </trkpt>
      <trkpt lat="44.9016" lon="-0.81445">
        <ele>45.03513</ele>
        <time>2022-01-18T14:07:51.223Z</time>
      </trkpt>
      <trkpt lat="44.89941" lon="-0.80466">
        <ele>43.448039</ele>
        <time>2022-01-18T14:10:52.136Z</time>
      </trkpt>
      <trkpt lat="44.89796" lon="-0.7982">
        <ele>41.835188</ele>
        <time>2022-01-18T14:12:50.460Z</time>
      </trkpt>
      <trkpt lat="44.89754" lon="-0.7963">
        <ele>41.504621</ele>
        <time>2022-01-18T14:13:25.206Z</time>
      </trkpt>
      <trkpt lat="44.89579" lon="-0.79778">
        <ele>41.966892</ele>
        <time>2022-01-18T14:14:20.206Z</time>
      </trkpt>
      <trkpt lat="44.89519" lon="-0.7982">
        <ele>42.003877</ele>
        <time>2022-01-18T14:14:37.834Z</time>
      </trkpt>
      <trkpt lat="44.89266" lon="-0.79954">
        <ele>41.666116</ele>
        <time>2022-01-18T14:15:44.615Z</time>
      </trkpt>
      <trkpt lat="44.89267" lon="-0.79915">
        <ele>41.834972</ele>
        <time>2022-01-18T14:15:51.887Z</time>
      </trkpt>
      <trkpt lat="44.89247" lon="-0.79905">
        <ele>41.964335</ele>
        <time>2022-01-18T14:15:57.557Z</time>
      </trkpt>
      <trkpt lat="44.89243" lon="-0.79852">
        <ele>42.201223</ele>
        <time>2022-01-18T14:16:08.276Z</time>
      </trkpt>
      <trkpt lat="44.89215" lon="-0.79778">
        <ele>42.573603</ele>
        <time>2022-01-18T14:16:25.734Z</time>
      </trkpt>
      <trkpt lat="44.89199" lon="-0.79754">
        <ele>42.728908</ele>
        <time>2022-01-18T14:16:32.702Z</time>
      </trkpt>
      <trkpt lat="44.89156" lon="-0.79732">
        <ele>43.146377</ele>
        <time>2022-01-18T14:16:46.647Z</time>
      </trkpt>
      <trkpt lat="44.8911" lon="-0.79457">
        <ele>44.544943</ele>
        <time>2022-01-18T14:17:43.624Z</time>
      </trkpt>
      <trkpt lat="44.89073" lon="-0.79264">
        <ele>44.831189</ele>
        <time>2022-01-18T14:18:19.795Z</time>
      </trkpt>
      <trkpt lat="44.89027" lon="-0.78991">
        <ele>44.427637</ele>
        <time>2022-01-18T14:19:09.621Z</time>
      </trkpt>
      <trkpt lat="44.88882" lon="-0.78219">
        <ele>42.408851</ele>
        <time>2022-01-18T14:21:28.629Z</time>
      </trkpt>
      <trkpt lat="44.88879" lon="-0.78212">
        <ele>42.381663</ele>
        <time>2022-01-18T14:21:30.026Z</time>
      </trkpt>
      <trkpt lat="44.88898" lon="-0.78174">
        <ele>42.225279</ele>
        <time>2022-01-18T14:21:38.002Z</time>
      </trkpt>
      <trkpt lat="44.88918" lon="-0.78171">
        <ele>42.134448</ele>
        <time>2022-01-18T14:21:42.639Z</time>
      </trkpt>
      <trkpt lat="44.88935" lon="-0.78135">
        <ele>41.992012</ele>
        <time>2022-01-18T14:21:50.143Z</time>
      </trkpt>
      <trkpt lat="44.88962" lon="-0.78107">
        <ele>41.949649</ele>
        <time>2022-01-18T14:21:58.487Z</time>
      </trkpt>
      <trkpt lat="44.88998" lon="-0.78094">
        <ele>41.990428</ele>
        <time>2022-01-18T14:22:08.050Z</time>
      </trkpt>
      <trkpt lat="44.89034" lon="-0.78042">
        <ele>42.045978</ele>
        <time>2022-01-18T14:22:21.471Z</time>
      </trkpt>
      <trkpt lat="44.89049" lon="-0.7802">
        <ele>42.069782</ele>
        <time>2022-01-18T14:22:27.517Z</time>
      </trkpt>
      <trkpt lat="44.89045" lon="-0.77926">
        <ele>42.090524</ele>
        <time>2022-01-18T14:22:45.074Z</time>
      </trkpt>
      <trkpt lat="44.89046" lon="-0.77923">
        <ele>42.085401</ele>
        <time>2022-01-18T14:22:45.791Z</time>
      </trkpt>
      <trkpt lat="44.89061" lon="-0.77866">
        <ele>42.003934</ele>
        <time>2022-01-18T14:22:57.087Z</time>
      </trkpt>
      <trkpt lat="44.89082" lon="-0.77783">
        <ele>41.886604</ele>
        <time>2022-01-18T14:23:12.739Z</time>
      </trkpt>
      <trkpt lat="44.89066" lon="-0.77685">
        <ele>41.676278</ele>
        <time>2022-01-18T14:23:29.880Z</time>
      </trkpt>
      <trkpt lat="44.89092" lon="-0.77666">
        <ele>41.486765</ele>
        <time>2022-01-18T14:23:36.724Z</time>
      </trkpt>
      <trkpt lat="44.89122" lon="-0.77622">
        <ele>41.208292</ele>
        <time>2022-01-18T14:23:46.801Z</time>
      </trkpt>
      <trkpt lat="44.89122" lon="-0.77602">
        <ele>41.119435</ele>
        <time>2022-01-18T14:23:50.163Z</time>
      </trkpt>
      <trkpt lat="44.89129" lon="-0.77585">
        <ele>41.029764</ele>
        <time>2022-01-18T14:23:53.455Z</time>
      </trkpt>
      <trkpt lat="44.89127" lon="-0.77571">
        <ele>40.96717</ele>
        <time>2022-01-18T14:23:55.751Z</time>
      </trkpt>
      <trkpt lat="44.89135" lon="-0.77558">
        <ele>40.888084</ele>
        <time>2022-01-18T14:23:58.828Z</time>
      </trkpt>
      <trkpt lat="44.8913" lon="-0.77538">
        <ele>40.790584</ele>
        <time>2022-01-18T14:24:02.467Z</time>
      </trkpt>
      <trkpt lat="44.89135" lon="-0.7753">
        <ele>40.74205</ele>
        <time>2022-01-18T14:24:04.284Z</time>
      </trkpt>
      <trkpt lat="44.89138" lon="-0.77508">
        <ele>40.641767</ele>
        <time>2022-01-18T14:24:08.312Z</time>
      </trkpt>
      <trkpt lat="44.8913" lon="-0.77479">
        <ele>40.712012</ele>
        <time>2022-01-18T14:24:13.806Z</time>
      </trkpt>
      <trkpt lat="44.89137" lon="-0.7747">
        <ele>40.755308</ele>
        <time>2022-01-18T14:24:15.985Z</time>
      </trkpt>
      <trkpt lat="44.89146" lon="-0.77465">
        <ele>40.79417</ele>
        <time>2022-01-18T14:24:17.904Z</time>
      </trkpt>
      <trkpt lat="44.8914" lon="-0.77455">
        <ele>40.832619</ele>
        <time>2022-01-18T14:24:20.064Z</time>
      </trkpt>
      <trkpt lat="44.89057" lon="-0.77432">
        <ele>41.201643</ele>
        <time>2022-01-18T14:24:43.025Z</time>
      </trkpt>
      <trkpt lat="44.89033" lon="-0.77406">
        <ele>41.333609</ele>
        <time>2022-01-18T14:24:51.741Z</time>
      </trkpt>
      <trkpt lat="44.88983" lon="-0.77355">
        <ele>41.69353</ele>
        <time>2022-01-18T14:25:10.562Z</time>
      </trkpt>
      <trkpt lat="44.88917" lon="-0.77309">
        <ele>42.17214</ele>
        <time>2022-01-18T14:25:32.239Z</time>
      </trkpt>
      <trkpt lat="44.88893" lon="-0.77298">
        <ele>42.333007</ele>
        <time>2022-01-18T14:25:39.220Z</time>
      </trkpt>
      <trkpt lat="44.88856" lon="-0.77254">
        <ele>42.469615</ele>
        <time>2022-01-18T14:25:51.420Z</time>
      </trkpt>
      <trkpt lat="44.88849" lon="-0.77212">
        <ele>42.204417</ele>
        <time>2022-01-18T14:25:58.666Z</time>
      </trkpt>
      <trkpt lat="44.88854" lon="-0.77136">
        <ele>41.730405</ele>
        <time>2022-01-18T14:26:11.704Z</time>
      </trkpt>
      <trkpt lat="44.88853" lon="-0.7709">
        <ele>41.445676</ele>
        <time>2022-01-18T14:26:19.194Z</time>
      </trkpt>
      <trkpt lat="44.88847" lon="-0.77073">
        <ele>41.328988</ele>
        <time>2022-01-18T14:26:22.112Z</time>
      </trkpt>
      <trkpt lat="44.88856" lon="-0.77069">
        <ele>41.249731</ele>
        <time>2022-01-18T14:26:23.360Z</time>
      </trkpt>
      <trkpt lat="44.88865" lon="-0.77064">
        <ele>41.161119</ele>
        <time>2022-01-18T14:26:24.846Z</time>
      </trkpt>
      <trkpt lat="44.88872" lon="-0.7706">
        <ele>41.093153</ele>
        <time>2022-01-18T14:26:25.954Z</time>
      </trkpt>
      <trkpt lat="44.88869" lon="-0.77038">
        <ele>40.938473</ele>
        <time>2022-01-18T14:26:29.379Z</time>
      </trkpt>
      <trkpt lat="44.88853" lon="-0.77007">
        <ele>40.610986</ele>
        <time>2022-01-18T14:26:35.521Z</time>
      </trkpt>
      <trkpt lat="44.88787" lon="-0.76953">
        <ele>39.677915</ele>
        <time>2022-01-18T14:26:52.874Z</time>
      </trkpt>
      <trkpt lat="44.88765" lon="-0.76961">
        <ele>39.400817</ele>
        <time>2022-01-18T14:26:58.278Z</time>
      </trkpt>
      <trkpt lat="44.88741" lon="-0.76951">
        <ele>39.090687</ele>
        <time>2022-01-18T14:27:04.080Z</time>
      </trkpt>
      <trkpt lat="44.8874" lon="-0.7694">
        <ele>38.997546</ele>
        <time>2022-01-18T14:27:05.885Z</time>
      </trkpt>
      <trkpt lat="44.88727" lon="-0.76919">
        <ele>38.762738</ele>
        <time>2022-01-18T14:27:10.638Z</time>
      </trkpt>
      <trkpt lat="44.8873" lon="-0.76872">
        <ele>38.447176</ele>
        <time>2022-01-18T14:27:18.584Z</time>
      </trkpt>
      <trkpt lat="44.88733" lon="-0.76839">
        <ele>38.226584</ele>
        <time>2022-01-18T14:27:24.119Z</time>
      </trkpt>
      <trkpt lat="44.88737" lon="-0.76658">
        <ele>37.029041</ele>
        <time>2022-01-18T14:27:54.292Z</time>
      </trkpt>
      <trkpt lat="44.88739" lon="-0.7628">
        <ele>35.168149</ele>
        <time>2022-01-18T14:28:57.584Z</time>
      </trkpt>
      <trkpt lat="44.88747" lon="-0.75547">
        <ele>34.744775</ele>
        <time>2022-01-18T14:31:09.804Z</time>
      </trkpt>
      <trkpt lat="44.8874" lon="-0.75495">
        <ele>34.718026</ele>
        <time>2022-01-18T14:31:19.388Z</time>
      </trkpt>
      <trkpt lat="44.88737" lon="-0.7545">
        <ele>34.694823</ele>
        <time>2022-01-18T14:31:27.601Z</time>
      </trkpt>
      <trkpt lat="44.88725" lon="-0.75266">
        <ele>33.984996</ele>
        <time>2022-01-18T14:31:59.886Z</time>
      </trkpt>
      <trkpt lat="44.88733" lon="-0.75215">
        <ele>33.723669</ele>
        <time>2022-01-18T14:32:08.622Z</time>
      </trkpt>
      <trkpt lat="44.88727" lon="-0.75198">
        <ele>33.631157</ele>
        <time>2022-01-18T14:32:11.666Z</time>
      </trkpt>
      <trkpt lat="44.88725" lon="-0.75188">
        <ele>33.579731</ele>
        <time>2022-01-18T14:32:13.370Z</time>
      </trkpt>
      <trkpt lat="44.88701" lon="-0.75124">
        <ele>33.025926</ele>
        <time>2022-01-18T14:32:25.085Z</time>
      </trkpt>
      <trkpt lat="44.8868" lon="-0.74836">
        <ele>30.475308</ele>
        <time>2022-01-18T14:33:11.392Z</time>
      </trkpt>
      <trkpt lat="44.8868" lon="-0.74828">
        <ele>30.435208</ele>
        <time>2022-01-18T14:33:12.771Z</time>
      </trkpt>
      <trkpt lat="44.88672" lon="-0.74693">
        <ele>29.773447</ele>
        <time>2022-01-18T14:33:36.467Z</time>
      </trkpt>
      <trkpt lat="44.88665" lon="-0.74578">
        <ele>29.313699</ele>
        <time>2022-01-18T14:33:56.928Z</time>
      </trkpt>
      <trkpt lat="44.88661" lon="-0.745">
        <ele>29.03144</ele>
        <time>2022-01-18T14:34:10.604Z</time>
      </trkpt>
      <trkpt lat="44.88651" lon="-0.74321">
        <ele>28.112999</ele>
        <time>2022-01-18T14:34:40.703Z</time>
      </trkpt>
      <trkpt lat="44.88648" lon="-0.7427">
        <ele>27.761224</ele>
        <time>2022-01-18T14:34:45.371Z</time>
      </trkpt>
      <trkpt lat="44.88646" lon="-0.74219">
        <ele>27.403286</ele>
        <time>2022-01-18T14:34:50.136Z</time>
      </trkpt>
      <trkpt lat="44.88641" lon="-0.74193">
        <ele>27.21804</ele>
        <time>2022-01-18T14:34:52.672Z</time>
      </trkpt>
      <trkpt lat="44.88631" lon="-0.74179">
        <ele>27.083716</ele>
        <time>2022-01-18T14:34:54.540Z</time>
      </trkpt>
      <trkpt lat="44.88632" lon="-0.74172">
        <ele>27.031619</ele>
        <time>2022-01-18T14:34:55.516Z</time>
      </trkpt>
      <trkpt lat="44.88632" lon="-0.74161">
        <ele>26.954538</ele>
        <time>2022-01-18T14:34:57.006Z</time>
      </trkpt>
      <trkpt lat="44.88639" lon="-0.74154">
        <ele>26.936562</ele>
        <time>2022-01-18T14:34:58.564Z</time>
      </trkpt>
      <trkpt lat="44.88657" lon="-0.74136">
        <ele>26.993543</ele>
        <time>2022-01-18T14:35:14.037Z</time>
      </trkpt>
      <trkpt lat="44.88666" lon="-0.74131">
        <ele>27.01756</ele>
        <time>2022-01-18T14:35:15.875Z</time>
      </trkpt>
      <trkpt lat="44.88702" lon="-0.74078">
        <ele>27.152497</ele>
        <time>2022-01-18T14:35:26.663Z</time>
      </trkpt>
      <trkpt lat="44.88718" lon="-0.74065">
        <ele>27.199566</ele>
        <time>2022-01-18T14:35:30.548Z</time>
      </trkpt>
      <trkpt lat="44.88719" lon="-0.74055">
        <ele>27.217246</ele>
        <time>2022-01-18T14:35:32.033Z</time>
      </trkpt>
      <trkpt lat="44.88829" lon="-0.73918">
        <ele>28.237565</ele>
        <time>2022-01-18T14:36:07.705Z</time>
      </trkpt>
      <trkpt lat="44.88946" lon="-0.73893">
        <ele>29.274649</ele>
        <time>2022-01-18T14:36:37.138Z</time>
      </trkpt>
      <trkpt lat="44.88964" lon="-0.73882">
        <ele>29.282103</ele>
        <time>2022-01-18T14:36:41.902Z</time>
      </trkpt>
      <trkpt lat="44.88969" lon="-0.73732">
        <ele>29.323249</ele>
        <time>2022-01-18T14:36:58.341Z</time>
      </trkpt>
      <trkpt lat="44.88971" lon="-0.73699">
        <ele>29.332129</ele>
        <time>2022-01-18T14:37:01.474Z</time>
      </trkpt>
      <trkpt lat="44.88974" lon="-0.73665">
        <ele>29.187276</ele>
        <time>2022-01-18T14:37:04.811Z</time>
      </trkpt>
      <trkpt lat="44.8898" lon="-0.73603">
        <ele>28.720885</ele>
        <time>2022-01-18T14:37:10.545Z</time>
      </trkpt>
      <trkpt lat="44.88981" lon="-0.73591">
        <ele>28.629086</ele>
        <time>2022-01-18T14:37:11.686Z</time>
      </trkpt>
      <trkpt lat="44.88991" lon="-0.73509">
        <ele>28.013078</ele>
        <time>2022-01-18T14:37:19.360Z</time>
      </trkpt>
      <trkpt lat="44.89003" lon="-0.7343">
        <ele>27.447959</ele>
        <time>2022-01-18T14:37:27.158Z</time>
      </trkpt>
      <trkpt lat="44.89021" lon="-0.73326">
        <ele>27.422433</ele>
        <time>2022-01-18T14:37:38.188Z</time>
      </trkpt>
      <trkpt lat="44.89025" lon="-0.73331">
        <ele>27.420588</ele>
        <time>2022-01-18T14:37:39.303Z</time>
      </trkpt>
      <trkpt lat="44.89041" lon="-0.73255">
        <ele>27.401952</ele>
        <time>2022-01-18T14:37:54.002Z</time>
      </trkpt>
      <trkpt lat="44.8905" lon="-0.73211">
        <ele>27.391224</ele>
        <time>2022-01-18T14:38:02.876Z</time>
      </trkpt>
      <trkpt lat="44.89056" lon="-0.73181">
        <ele>27.445536</ele>
        <time>2022-01-18T14:38:09.385Z</time>
      </trkpt>
      <trkpt lat="44.89051" lon="-0.73186">
        <ele>27.46606</ele>
        <time>2022-01-18T14:38:10.437Z</time>
      </trkpt>
      <trkpt lat="44.89042" lon="-0.73198">
        <ele>27.510758</ele>
        <time>2022-01-18T14:38:12.499Z</time>
      </trkpt>
      <trkpt lat="44.89047" lon="-0.7318">
        <ele>27.560595</ele>
        <time>2022-01-18T14:38:15.251Z</time>
      </trkpt>
      <trkpt lat="44.8905" lon="-0.73169">
        <ele>27.589509</ele>
        <time>2022-01-18T14:38:16.840Z</time>
      </trkpt>
      <trkpt lat="44.89054" lon="-0.73158">
        <ele>27.621727</ele>
        <time>2022-01-18T14:38:18.254Z</time>
      </trkpt>
      <trkpt lat="44.89058" lon="-0.7315">
        <ele>27.645388</ele>
        <time>2022-01-18T14:38:19.495Z</time>
      </trkpt>
      <trkpt lat="44.89067" lon="-0.73123">
        <ele>27.717172</ele>
        <time>2022-01-18T14:38:23.385Z</time>
      </trkpt>
      <trkpt lat="44.89104" lon="-0.72981">
        <ele>27.862219</ele>
        <time>2022-01-18T14:38:40.692Z</time>
      </trkpt>
      <trkpt lat="44.8916" lon="-0.72802">
        <ele>26.824755</ele>
        <time>2022-01-18T14:38:59.618Z</time>
      </trkpt>
      <trkpt lat="44.89176" lon="-0.72747">
        <ele>26.438589</ele>
        <time>2022-01-18T14:39:05.200Z</time>
      </trkpt>
      <trkpt lat="44.89202" lon="-0.72605">
        <ele>25.352484</ele>
        <time>2022-01-18T14:39:18.894Z</time>
      </trkpt>
      <trkpt lat="44.89214" lon="-0.72555">
        <ele>24.959398</ele>
        <time>2022-01-18T14:39:23.990Z</time>
      </trkpt>
      <trkpt lat="44.89225" lon="-0.72519">
        <ele>24.738576</ele>
        <time>2022-01-18T14:39:27.880Z</time>
      </trkpt>
      <trkpt lat="44.89227" lon="-0.72513">
        <ele>24.719497</ele>
        <time>2022-01-18T14:39:28.557Z</time>
      </trkpt>
      <trkpt lat="44.89276" lon="-0.72391">
        <ele>24.330545</ele>
        <time>2022-01-18T14:39:42.830Z</time>
      </trkpt>
      <trkpt lat="44.89302" lon="-0.72341">
        <ele>24.159601</ele>
        <time>2022-01-18T14:39:49.360Z</time>
      </trkpt>
      <trkpt lat="44.89308" lon="-0.72326">
        <ele>24.11033</ele>
        <time>2022-01-18T14:39:51.237Z</time>
      </trkpt>
      <trkpt lat="44.89311" lon="-0.72318">
        <ele>24.087816</ele>
        <time>2022-01-18T14:39:52.130Z</time>
      </trkpt>
      <trkpt lat="44.89311" lon="-0.72311">
        <ele>24.069259</ele>
        <time>2022-01-18T14:39:53.011Z</time>
      </trkpt>
      <trkpt lat="44.89311" lon="-0.72301">
        <ele>24.047467</ele>
        <time>2022-01-18T14:39:54.067Z</time>
      </trkpt>
      <trkpt lat="44.89317" lon="-0.72293">
        <ele>24.020008</ele>
        <time>2022-01-18T14:39:55.361Z</time>
      </trkpt>
      <trkpt lat="44.89327" lon="-0.7228">
        <ele>23.975828</ele>
        <time>2022-01-18T14:39:57.413Z</time>
      </trkpt>
      <trkpt lat="44.8933" lon="-0.72273">
        <ele>23.959081</ele>
        <time>2022-01-18T14:39:58.314Z</time>
      </trkpt>
      <trkpt lat="44.89349" lon="-0.72216">
        <ele>23.813963</ele>
        <time>2022-01-18T14:40:05.194Z</time>
      </trkpt>
      <trkpt lat="44.89377" lon="-0.72098">
        <ele>23.532671</ele>
        <time>2022-01-18T14:40:17.850Z</time>
      </trkpt>
      <trkpt lat="44.89389" lon="-0.71969">
        <ele>22.744512</ele>
        <time>2022-01-18T14:40:30.714Z</time>
      </trkpt>
      <trkpt lat="44.89388" lon="-0.71922">
        <ele>22.439422</ele>
        <time>2022-01-18T14:40:35.205Z</time>
      </trkpt>
      <trkpt lat="44.89382" lon="-0.71848">
        <ele>21.950991</ele>
        <time>2022-01-18T14:40:42.241Z</time>
      </trkpt>
      <trkpt lat="44.89371" lon="-0.71773">
        <ele>21.309653</ele>
        <time>2022-01-18T14:40:49.344Z</time>
      </trkpt>
      <trkpt lat="44.89346" lon="-0.71667">
        <ele>20.329213</ele>
        <time>2022-01-18T14:40:59.681Z</time>
      </trkpt>
      <trkpt lat="44.89323" lon="-0.71565">
        <ele>19.467694</ele>
        <time>2022-01-18T14:41:09.823Z</time>
      </trkpt>
      <trkpt lat="44.89308" lon="-0.71497">
        <ele>19.062797</ele>
        <time>2022-01-18T14:41:16.613Z</time>
      </trkpt>
      <trkpt lat="44.89283" lon="-0.7139">
        <ele>18.418091</ele>
        <time>2022-01-18T14:41:27.730Z</time>
      </trkpt>
      <trkpt lat="44.89271" lon="-0.71335">
        <ele>18.102599</ele>
        <time>2022-01-18T14:41:33.498Z</time>
      </trkpt>
      <trkpt lat="44.89261" lon="-0.71278">
        <ele>17.818876</ele>
        <time>2022-01-18T14:41:39.490Z</time>
      </trkpt>
      <trkpt lat="44.89258" lon="-0.71253">
        <ele>17.70095</ele>
        <time>2022-01-18T14:41:41.949Z</time>
      </trkpt>
      <trkpt lat="44.89255" lon="-0.71149">
        <ele>17.198481</ele>
        <time>2022-01-18T14:41:52.256Z</time>
      </trkpt>
      <trkpt lat="44.89262" lon="-0.71051">
        <ele>16.748941</ele>
        <time>2022-01-18T14:42:01.993Z</time>
      </trkpt>
      <trkpt lat="44.89265" lon="-0.71039">
        <ele>16.695273</ele>
        <time>2022-01-18T14:42:03.145Z</time>
      </trkpt>
      <trkpt lat="44.89269" lon="-0.71023">
        <ele>16.622234</ele>
        <time>2022-01-18T14:42:04.905Z</time>
      </trkpt>
      <trkpt lat="44.89273" lon="-0.71005">
        <ele>16.539655</ele>
        <time>2022-01-18T14:42:06.888Z</time>
      </trkpt>
      <trkpt lat="44.89274" lon="-0.70993">
        <ele>16.489951</ele>
        <time>2022-01-18T14:42:07.979Z</time>
      </trkpt>
      <trkpt lat="44.89284" lon="-0.70938">
        <ele>16.243132</ele>
        <time>2022-01-18T14:42:13.665Z</time>
      </trkpt>
      <trkpt lat="44.89293" lon="-0.70895">
        <ele>16.052179</ele>
        <time>2022-01-18T14:42:18.093Z</time>
      </trkpt>
      <trkpt lat="44.89311" lon="-0.70789">
        <ele>15.788317</ele>
        <time>2022-01-18T14:42:29.278Z</time>
      </trkpt>
      <trkpt lat="44.89318" lon="-0.70745">
        <ele>15.742186</ele>
        <time>2022-01-18T14:42:33.949Z</time>
      </trkpt>
      <trkpt lat="44.89326" lon="-0.70666">
        <ele>15.660505</ele>
        <time>2022-01-18T14:42:42.486Z</time>
      </trkpt>
      <trkpt lat="44.89331" lon="-0.70574">
        <ele>15.636681</ele>
        <time>2022-01-18T14:42:52.908Z</time>
      </trkpt>
      <trkpt lat="44.89331" lon="-0.70538">
        <ele>15.694146</ele>
        <time>2022-01-18T14:42:57.041Z</time>
      </trkpt>
      <trkpt lat="44.8933" lon="-0.70496">
        <ele>15.762693</ele>
        <time>2022-01-18T14:43:02.223Z</time>
      </trkpt>
      <trkpt lat="44.89326" lon="-0.70378">
        <ele>15.952377</ele>
        <time>2022-01-18T14:43:16.252Z</time>
      </trkpt>
      <trkpt lat="44.89313" lon="-0.70287">
        <ele>15.893195</ele>
        <time>2022-01-18T14:43:26.237Z</time>
      </trkpt>
      <trkpt lat="44.89297" lon="-0.70189">
        <ele>15.718163</ele>
        <time>2022-01-18T14:43:36.783Z</time>
      </trkpt>
      <trkpt lat="44.89273" lon="-0.70082">
        <ele>15.605275</ele>
        <time>2022-01-18T14:43:48.104Z</time>
      </trkpt>
      <trkpt lat="44.8927" lon="-0.70067">
        <ele>15.641607</ele>
        <time>2022-01-18T14:43:49.740Z</time>
      </trkpt>
      <trkpt lat="44.89265" lon="-0.70045">
        <ele>15.692683</ele>
        <time>2022-01-18T14:43:52.082Z</time>
      </trkpt>
      <trkpt lat="44.89263" lon="-0.70038">
        <ele>15.709349</ele>
        <time>2022-01-18T14:43:52.833Z</time>
      </trkpt>
      <trkpt lat="44.8926" lon="-0.70022">
        <ele>15.748563</ele>
        <time>2022-01-18T14:43:54.662Z</time>
      </trkpt>
      <trkpt lat="44.89236" lon="-0.69916">
        <ele>15.999048</ele>
        <time>2022-01-18T14:44:07.615Z</time>
      </trkpt>
      <trkpt lat="44.89226" lon="-0.6987">
        <ele>16.109007</ele>
        <time>2022-01-18T14:44:14.335Z</time>
      </trkpt>
      <trkpt lat="44.89156" lon="-0.69573">
        <ele>18.98099</ele>
        <time>2022-01-18T14:45:01.321Z</time>
      </trkpt>
      <trkpt lat="44.89132" lon="-0.69471">
        <ele>19.713818</ele>
        <time>2022-01-18T14:45:16.288Z</time>
      </trkpt>
      <trkpt lat="44.89151" lon="-0.69453">
        <ele>19.928532</ele>
        <time>2022-01-18T14:45:20.521Z</time>
      </trkpt>
      <trkpt lat="44.89159" lon="-0.69438">
        <ele>20.055473</ele>
        <time>2022-01-18T14:45:24.362Z</time>
      </trkpt>
      <trkpt lat="44.89163" lon="-0.69402">
        <ele>20.30497</ele>
        <time>2022-01-18T14:45:31.529Z</time>
      </trkpt>
      <trkpt lat="44.89162" lon="-0.69344">
        <ele>20.559014</ele>
        <time>2022-01-18T14:45:42.678Z</time>
      </trkpt>
      <trkpt lat="44.89166" lon="-0.69323">
        <ele>20.643794</ele>
        <time>2022-01-18T14:45:46.932Z</time>
      </trkpt>
      <trkpt lat="44.8922" lon="-0.69176">
        <ele>21.277344</ele>
        <time>2022-01-18T14:46:19.513Z</time>
      </trkpt>
      <trkpt lat="44.89259" lon="-0.69046">
        <ele>21.287575</ele>
        <time>2022-01-18T14:46:47.019Z</time>
      </trkpt>
      <trkpt lat="44.89269" lon="-0.69029">
        <ele>21.276041</ele>
        <time>2022-01-18T14:46:50.699Z</time>
      </trkpt>
      <trkpt lat="44.89279" lon="-0.69015">
        <ele>21.264881</ele>
        <time>2022-01-18T14:46:54.400Z</time>
      </trkpt>
      <trkpt lat="44.89289" lon="-0.69002">
        <ele>21.254535</ele>
        <time>2022-01-18T14:46:57.621Z</time>
      </trkpt>
      <trkpt lat="44.89296" lon="-0.68986">
        <ele>21.244891</ele>
        <time>2022-01-18T14:47:00.696Z</time>
      </trkpt>
      <trkpt lat="44.89305" lon="-0.68923">
        <ele>21.096747</ele>
        <time>2022-01-18T14:47:11.595Z</time>
      </trkpt>
      <trkpt lat="44.89318" lon="-0.68893">
        <ele>20.718403</ele>
        <time>2022-01-18T14:47:17.463Z</time>
      </trkpt>
      <trkpt lat="44.89347" lon="-0.68827">
        <ele>19.897151</ele>
        <time>2022-01-18T14:47:30.022Z</time>
      </trkpt>
      <trkpt lat="44.89362" lon="-0.6879">
        <ele>19.433852</ele>
        <time>2022-01-18T14:47:36.886Z</time>
      </trkpt>
      <trkpt lat="44.89368" lon="-0.6876">
        <ele>19.108166</ele>
        <time>2022-01-18T14:47:41.667Z</time>
      </trkpt>
      <trkpt lat="44.89379" lon="-0.68531">
        <ele>16.502485</ele>
        <time>2022-01-18T14:48:17.280Z</time>
      </trkpt>
      <trkpt lat="44.89373" lon="-0.68463">
        <ele>15.701499</ele>
        <time>2022-01-18T14:48:28.700Z</time>
      </trkpt>
      <trkpt lat="44.89367" lon="-0.68446">
        <ele>15.555402</ele>
        <time>2022-01-18T14:48:31.617Z</time>
      </trkpt>
      <trkpt lat="44.89364" lon="-0.68438">
        <ele>15.537682</ele>
        <time>2022-01-18T14:48:33.090Z</time>
      </trkpt>
      <trkpt lat="44.89359" lon="-0.68427">
        <ele>15.507546</ele>
        <time>2022-01-18T14:48:35.659Z</time>
      </trkpt>
      <trkpt lat="44.89333" lon="-0.68365">
        <ele>15.354303</ele>
        <time>2022-01-18T14:48:47.671Z</time>
      </trkpt>
      <trkpt lat="44.89321" lon="-0.68333">
        <ele>15.276479</ele>
        <time>2022-01-18T14:48:54.422Z</time>
      </trkpt>
      <trkpt lat="44.89318" lon="-0.68304">
        <ele>15.213563</ele>
        <time>2022-01-18T14:48:59.296Z</time>
      </trkpt>
      <trkpt lat="44.8932" lon="-0.68253">
        <ele>15.102989</ele>
        <time>2022-01-18T14:49:08.453Z</time>
      </trkpt>
      <trkpt lat="44.89317" lon="-0.68206">
        <ele>15.130111</ele>
        <time>2022-01-18T14:49:17.973Z</time>
      </trkpt>
      <trkpt lat="44.8931" lon="-0.68163">
        <ele>15.504982</ele>
        <time>2022-01-18T14:49:27.103Z</time>
      </trkpt>
      <trkpt lat="44.89293" lon="-0.68125">
        <ele>15.885165</ele>
        <time>2022-01-18T14:49:36.862Z</time>
      </trkpt>
      <trkpt lat="44.89289" lon="-0.68115">
        <ele>15.979372</ele>
        <time>2022-01-18T14:49:39.134Z</time>
      </trkpt>
      <trkpt lat="44.89256" lon="-0.68053">
        <ele>16.634508</ele>
        <time>2022-01-18T14:49:56.548Z</time>
      </trkpt>
      <trkpt lat="44.89229" lon="-0.67993">
        <ele>17.205132</ele>
        <time>2022-01-18T14:50:12.328Z</time>
      </trkpt>
      <trkpt lat="44.8921" lon="-0.6793">
        <ele>17.444021</ele>
        <time>2022-01-18T14:50:26.796Z</time>
      </trkpt>
      <trkpt lat="44.89187" lon="-0.67854">
        <ele>17.733759</ele>
        <time>2022-01-18T14:50:44.334Z</time>
      </trkpt>
      <trkpt lat="44.89187" lon="-0.67851">
        <ele>17.744873</ele>
        <time>2022-01-18T14:50:44.825Z</time>
      </trkpt>
      <trkpt lat="44.89089" lon="-0.6764">
        <ele>16.968808</ele>
        <time>2022-01-18T14:51:28.018Z</time>
      </trkpt>
      <trkpt lat="44.89088" lon="-0.67635">
        <ele>16.93133</ele>
        <time>2022-01-18T14:51:28.810Z</time>
      </trkpt>
      <trkpt lat="44.89083" lon="-0.67597">
        <ele>16.666372</ele>
        <time>2022-01-18T14:51:34.813Z</time>
      </trkpt>
      <trkpt lat="44.89058" lon="-0.67562">
        <ele>16.324567</ele>
        <time>2022-01-18T14:51:42.656Z</time>
      </trkpt>
      <trkpt lat="44.89052" lon="-0.67539">
        <ele>16.188498</ele>
        <time>2022-01-18T14:51:46.566Z</time>
      </trkpt>
      <trkpt lat="44.89042" lon="-0.67479">
        <ele>15.84789</ele>
        <time>2022-01-18T14:51:56.821Z</time>
      </trkpt>
      <trkpt lat="44.89029" lon="-0.67407">
        <ele>15.436865</ele>
        <time>2022-01-18T14:52:09.253Z</time>
      </trkpt>
      <trkpt lat="44.89022" lon="-0.67409">
        <ele>15.384065</ele>
        <time>2022-01-18T14:52:10.301Z</time>
      </trkpt>
      <trkpt lat="44.89011" lon="-0.67412">
        <ele>15.298112</ele>
        <time>2022-01-18T14:52:11.920Z</time>
      </trkpt>
      <trkpt lat="44.89001" lon="-0.67413">
        <ele>15.219389</ele>
        <time>2022-01-18T14:52:13.455Z</time>
      </trkpt>
      <trkpt lat="44.88989" lon="-0.67414">
        <ele>15.123728</ele>
        <time>2022-01-18T14:52:15.096Z</time>
      </trkpt>
      <trkpt lat="44.88987" lon="-0.67414">
        <ele>15.112065</ele>
        <time>2022-01-18T14:52:15.458Z</time>
      </trkpt>
      <trkpt lat="44.88978" lon="-0.67414">
        <ele>15.03747</ele>
        <time>2022-01-18T14:52:16.877Z</time>
      </trkpt>
      <trkpt lat="44.88967" lon="-0.67417">
        <ele>14.951216</ele>
        <time>2022-01-18T14:52:18.579Z</time>
      </trkpt>
      <trkpt lat="44.88957" lon="-0.67422">
        <ele>14.922237</ele>
        <time>2022-01-18T14:52:19.980Z</time>
      </trkpt>
      <trkpt lat="44.8894" lon="-0.67422">
        <ele>14.933792</ele>
        <time>2022-01-18T14:52:22.938Z</time>
      </trkpt>
      <trkpt lat="44.8894" lon="-0.67415">
        <ele>14.93707</ele>
        <time>2022-01-18T14:52:23.784Z</time>
      </trkpt>
      <trkpt lat="44.8894" lon="-0.67411">
        <ele>14.938615</ele>
        <time>2022-01-18T14:52:24.175Z</time>
      </trkpt>
      <trkpt lat="44.8894" lon="-0.67397">
        <ele>14.945544</ele>
        <time>2022-01-18T14:52:25.677Z</time>
      </trkpt>
      <trkpt lat="44.88948" lon="-0.67212">
        <ele>15.032129</ele>
        <time>2022-01-18T14:52:47.149Z</time>
      </trkpt>
      <trkpt lat="44.88955" lon="-0.67035">
        <ele>14.922756</ele>
        <time>2022-01-18T14:53:05.308Z</time>
      </trkpt>
      <trkpt lat="44.88957" lon="-0.66988">
        <ele>14.890116</ele>
        <time>2022-01-18T14:53:10.404Z</time>
      </trkpt>
      <trkpt lat="44.8896" lon="-0.66861">
        <ele>15.649014</ele>
        <time>2022-01-18T14:53:26.760Z</time>
      </trkpt>
      <trkpt lat="44.88962" lon="-0.66839">
        <ele>15.844694</ele>
        <time>2022-01-18T14:53:29.918Z</time>
      </trkpt>
      <trkpt lat="44.88955" lon="-0.66839">
        <ele>15.926783</ele>
        <time>2022-01-18T14:53:31.207Z</time>
      </trkpt>
      <trkpt lat="44.88949" lon="-0.66833">
        <ele>16.020433</ele>
        <time>2022-01-18T14:53:32.703Z</time>
      </trkpt>
      <trkpt lat="44.88937" lon="-0.66825">
        <ele>16.192335</ele>
        <time>2022-01-18T14:53:35.848Z</time>
      </trkpt>
      <trkpt lat="44.88796" lon="-0.6669">
        <ele>18.892547</ele>
        <time>2022-01-18T14:54:17.092Z</time>
      </trkpt>
      <trkpt lat="44.88711" lon="-0.66622">
        <ele>20.559337</ele>
        <time>2022-01-18T14:54:40.247Z</time>
      </trkpt>
      <trkpt lat="44.88527" lon="-0.66444">
        <ele>21.975921</ele>
        <time>2022-01-18T14:55:21.483Z</time>
      </trkpt>
      <trkpt lat="44.88519" lon="-0.6643">
        <ele>22.003547</ele>
        <time>2022-01-18T14:55:23.542Z</time>
      </trkpt>
      <trkpt lat="44.88486" lon="-0.66328">
        <ele>22.173826</ele>
        <time>2022-01-18T14:55:36.582Z</time>
      </trkpt>
      <trkpt lat="44.8846" lon="-0.66224">
        <ele>22.363572</ele>
        <time>2022-01-18T14:55:49.417Z</time>
      </trkpt>
      <trkpt lat="44.88457" lon="-0.66221">
        <ele>22.373601</ele>
        <time>2022-01-18T14:55:49.914Z</time>
      </trkpt>
      <trkpt lat="44.8845" lon="-0.66225">
        <ele>22.393047</ele>
        <time>2022-01-18T14:55:51.195Z</time>
      </trkpt>
      <trkpt lat="44.88445" lon="-0.66226">
        <ele>22.407216</ele>
        <time>2022-01-18T14:55:52.194Z</time>
      </trkpt>
      <trkpt lat="44.88435" lon="-0.66228">
        <ele>22.43385</ele>
        <time>2022-01-18T14:55:54.140Z</time>
      </trkpt>
      <trkpt lat="44.8843" lon="-0.66225">
        <ele>22.44659</ele>
        <time>2022-01-18T14:55:55.010Z</time>
      </trkpt>
      <trkpt lat="44.88435" lon="-0.6622">
        <ele>22.462031</ele>
        <time>2022-01-18T14:55:55.878Z</time>
      </trkpt>
      <trkpt lat="44.88436" lon="-0.66219">
        <ele>22.465235</ele>
        <time>2022-01-18T14:55:56.039Z</time>
      </trkpt>
      <trkpt lat="44.88438" lon="-0.66214">
        <ele>22.476385</ele>
        <time>2022-01-18T14:55:56.697Z</time>
      </trkpt>
      <trkpt lat="44.88437" lon="-0.66201">
        <ele>22.500003</ele>
        <time>2022-01-18T14:55:58.302Z</time>
      </trkpt>
      <trkpt lat="44.88437" lon="-0.66193">
        <ele>22.514612</ele>
        <time>2022-01-18T14:55:59.534Z</time>
      </trkpt>
      <trkpt lat="44.88441" lon="-0.66098">
        <ele>22.6929</ele>
        <time>2022-01-18T14:56:11.281Z</time>
      </trkpt>
      <trkpt lat="44.88457" lon="-0.65946">
        <ele>23.258929</ele>
        <time>2022-01-18T14:56:31.630Z</time>
      </trkpt>
      <trkpt lat="44.88462" lon="-0.65941">
        <ele>23.291722</ele>
        <time>2022-01-18T14:56:32.722Z</time>
      </trkpt>
      <trkpt lat="44.88465" lon="-0.65915">
        <ele>23.39283</ele>
        <time>2022-01-18T14:56:36.044Z</time>
      </trkpt>
      <trkpt lat="44.88458" lon="-0.65912">
        <ele>23.431952</ele>
        <time>2022-01-18T14:56:37.411Z</time>
      </trkpt>
      <trkpt lat="44.88417" lon="-0.65862">
        <ele>23.724484</ele>
        <time>2022-01-18T14:56:46.914Z</time>
      </trkpt>
      <trkpt lat="44.88412" lon="-0.65854">
        <ele>23.771201</ele>
        <time>2022-01-18T14:56:48.331Z</time>
      </trkpt>
      <trkpt lat="44.88394" lon="-0.65793">
        <ele>24.049166</ele>
        <time>2022-01-18T14:56:57.025Z</time>
      </trkpt>
      <trkpt lat="44.88357" lon="-0.6568">
        <ele>24.572888</ele>
        <time>2022-01-18T14:57:13.695Z</time>
      </trkpt>
      <trkpt lat="44.88327" lon="-0.65589">
        <ele>24.876071</ele>
        <time>2022-01-18T14:57:27.187Z</time>
      </trkpt>
      <trkpt lat="44.88317" lon="-0.65535">
        <ele>24.989887</ele>
        <time>2022-01-18T14:57:33.394Z</time>
      </trkpt>
      <trkpt lat="44.88317" lon="-0.65522">
        <ele>25.017212</ele>
        <time>2022-01-18T14:57:35.160Z</time>
      </trkpt>
      <trkpt lat="44.88319" lon="-0.65515">
        <ele>25.032031</ele>
        <time>2022-01-18T14:57:35.951Z</time>
      </trkpt>
      <trkpt lat="44.88322" lon="-0.65504">
        <ele>25.05634</ele>
        <time>2022-01-18T14:57:37.278Z</time>
      </trkpt>
      <trkpt lat="44.88301" lon="-0.65491">
        <ele>25.122633</ele>
        <time>2022-01-18T14:57:41.081Z</time>
      </trkpt>
      <trkpt lat="44.8828" lon="-0.65477">
        <ele>25.190218</ele>
        <time>2022-01-18T14:57:44.862Z</time>
      </trkpt>
      <trkpt lat="44.88251" lon="-0.65458">
        <ele>25.282224</ele>
        <time>2022-01-18T14:57:50.100Z</time>
      </trkpt>
      <trkpt lat="44.88227" lon="-0.65442">
        <ele>25.341784</ele>
        <time>2022-01-18T14:57:54.406Z</time>
      </trkpt>
      <trkpt lat="44.88211" lon="-0.65434">
        <ele>25.377348</ele>
        <time>2022-01-18T14:57:56.813Z</time>
      </trkpt>
      <trkpt lat="44.88205" lon="-0.65434">
        <ele>25.391424</ele>
        <time>2022-01-18T14:57:57.917Z</time>
      </trkpt>
      <trkpt lat="44.882" lon="-0.65435">
        <ele>25.402271</ele>
        <time>2022-01-18T14:57:58.738Z</time>
      </trkpt>
      <trkpt lat="44.88195" lon="-0.65436">
        <ele>25.412747</ele>
        <time>2022-01-18T14:57:59.463Z</time>
      </trkpt>
      <trkpt lat="44.88193" lon="-0.65439">
        <ele>25.419753</ele>
        <time>2022-01-18T14:57:59.956Z</time>
      </trkpt>
      <trkpt lat="44.8819" lon="-0.6544">
        <ele>25.426822</ele>
        <time>2022-01-18T14:58:00.484Z</time>
      </trkpt>
      <trkpt lat="44.88187" lon="-0.6544">
        <ele>25.43386</ele>
        <time>2022-01-18T14:58:01.029Z</time>
      </trkpt>
      <trkpt lat="44.88181" lon="-0.65435">
        <ele>25.447878</ele>
        <time>2022-01-18T14:58:01.988Z</time>
      </trkpt>
      <trkpt lat="44.88179" lon="-0.65432">
        <ele>25.454871</ele>
        <time>2022-01-18T14:58:02.481Z</time>
      </trkpt>
      <trkpt lat="44.88178" lon="-0.65427">
        <ele>25.462006</ele>
        <time>2022-01-18T14:58:02.970Z</time>
      </trkpt>
      <trkpt lat="44.88178" lon="-0.65423">
        <ele>25.469187</ele>
        <time>2022-01-18T14:58:03.455Z</time>
      </trkpt>
      <trkpt lat="44.88173" lon="-0.65419">
        <ele>25.482477</ele>
        <time>2022-01-18T14:58:04.720Z</time>
      </trkpt>
      <trkpt lat="44.8817" lon="-0.65412">
        <ele>25.494709</ele>
        <time>2022-01-18T14:58:05.876Z</time>
      </trkpt>
      <trkpt lat="44.8815" lon="-0.65365">
        <ele>25.580948</ele>
        <time>2022-01-18T14:58:14.022Z</time>
      </trkpt>
      <trkpt lat="44.88134" lon="-0.65329">
        <ele>25.646165</ele>
        <time>2022-01-18T14:58:20.289Z</time>
      </trkpt>
      <trkpt lat="44.88125" lon="-0.65307">
        <ele>25.684581</ele>
        <time>2022-01-18T14:58:24.416Z</time>
      </trkpt>
      <trkpt lat="44.88113" lon="-0.65281">
        <ele>25.721277</ele>
        <time>2022-01-18T14:58:29.279Z</time>
      </trkpt>
      <trkpt lat="44.88118" lon="-0.6527">
        <ele>25.736969</ele>
        <time>2022-01-18T14:58:31.506Z</time>
      </trkpt>
      <trkpt lat="44.88111" lon="-0.65252">
        <ele>25.761007</ele>
        <time>2022-01-18T14:58:33.989Z</time>
      </trkpt>
      <trkpt lat="44.88096" lon="-0.65217">
        <ele>25.81058</ele>
        <time>2022-01-18T14:58:39.032Z</time>
      </trkpt>
      <trkpt lat="44.88093" lon="-0.6521">
        <ele>25.820707</ele>
        <time>2022-01-18T14:58:39.893Z</time>
      </trkpt>
      <trkpt lat="44.88082" lon="-0.6517">
        <ele>25.872436</ele>
        <time>2022-01-18T14:58:44.734Z</time>
      </trkpt>
      <trkpt lat="44.88081" lon="-0.65152">
        <ele>25.894157</ele>
        <time>2022-01-18T14:58:46.560Z</time>
      </trkpt>
      <trkpt lat="44.88079" lon="-0.65142">
        <ele>25.906759</ele>
        <time>2022-01-18T14:58:47.670Z</time>
      </trkpt>
      <trkpt lat="44.8807" lon="-0.65101">
        <ele>25.959084</ele>
        <time>2022-01-18T14:58:52.337Z</time>
      </trkpt>
      <trkpt lat="44.88062" lon="-0.65035">
        <ele>25.964586</ele>
        <time>2022-01-18T14:58:59.383Z</time>
      </trkpt>
      <trkpt lat="44.88057" lon="-0.65037">
        <ele>25.960872</ele>
        <time>2022-01-18T14:59:00.530Z</time>
      </trkpt>
      <trkpt lat="44.88054" lon="-0.65009">
        <ele>25.947947</ele>
        <time>2022-01-18T14:59:05.427Z</time>
      </trkpt>
      <trkpt lat="44.88048" lon="-0.64954">
        <ele>25.922978</ele>
        <time>2022-01-18T14:59:15.056Z</time>
      </trkpt>
      <trkpt lat="44.88035" lon="-0.649">
        <ele>25.897568</ele>
        <time>2022-01-18T14:59:25.136Z</time>
      </trkpt>
      <trkpt lat="44.88034" lon="-0.64897">
        <ele>25.895729</ele>
        <time>2022-01-18T14:59:25.775Z</time>
      </trkpt>
      <trkpt lat="44.88033" lon="-0.64889">
        <ele>25.892234</ele>
        <time>2022-01-18T14:59:27.465Z</time>
      </trkpt>
      <trkpt lat="44.88014" lon="-0.64844">
        <ele>25.892799</ele>
        <time>2022-01-18T14:59:37.422Z</time>
      </trkpt>
      <trkpt lat="44.87978" lon="-0.64777">
        <ele>26.280652</ele>
        <time>2022-01-18T14:59:53.720Z</time>
      </trkpt>
      <trkpt lat="44.87983" lon="-0.64772">
        <ele>26.322393</ele>
        <time>2022-01-18T14:59:58.210Z</time>
      </trkpt>
      <trkpt lat="44.87975" lon="-0.64756">
        <ele>26.413154</ele>
        <time>2022-01-18T15:00:00.864Z</time>
      </trkpt>
      <trkpt lat="44.87966" lon="-0.64739">
        <ele>26.514907</ele>
        <time>2022-01-18T15:00:03.857Z</time>
      </trkpt>
      <trkpt lat="44.87957" lon="-0.64722">
        <ele>26.609092</ele>
        <time>2022-01-18T15:00:06.439Z</time>
      </trkpt>
      <trkpt lat="44.87953" lon="-0.64714">
        <ele>26.660535</ele>
        <time>2022-01-18T15:00:07.950Z</time>
      </trkpt>
      <trkpt lat="44.87946" lon="-0.64713">
        <ele>26.700651</ele>
        <time>2022-01-18T15:00:09.336Z</time>
      </trkpt>
      <trkpt lat="44.87852" lon="-0.64531">
        <ele>27.54896</ele>
        <time>2022-01-18T15:00:39.424Z</time>
      </trkpt>
      <trkpt lat="44.87809" lon="-0.64451">
        <ele>27.882437</ele>
        <time>2022-01-18T15:00:51.471Z</time>
      </trkpt>
      <trkpt lat="44.87794" lon="-0.6442">
        <ele>27.840497</ele>
        <time>2022-01-18T15:00:56.338Z</time>
      </trkpt>
      <trkpt lat="44.87752" lon="-0.64338">
        <ele>27.691481</ele>
        <time>2022-01-18T15:01:07.708Z</time>
      </trkpt>
      <trkpt lat="44.87723" lon="-0.6428">
        <ele>27.58549</ele>
        <time>2022-01-18T15:01:15.425Z</time>
      </trkpt>
      <trkpt lat="44.87724" lon="-0.64269">
        <ele>27.569329</ele>
        <time>2022-01-18T15:01:16.725Z</time>
      </trkpt>
      <trkpt lat="44.87719" lon="-0.6426">
        <ele>27.552892</ele>
        <time>2022-01-18T15:01:17.691Z</time>
      </trkpt>
      <trkpt lat="44.87718" lon="-0.64257">
        <ele>27.547926</ele>
        <time>2022-01-18T15:01:18.098Z</time>
      </trkpt>
      <trkpt lat="44.87712" lon="-0.64245">
        <ele>27.526404</ele>
        <time>2022-01-18T15:01:19.764Z</time>
      </trkpt>
      <trkpt lat="44.87707" lon="-0.64233">
        <ele>27.468947</ele>
        <time>2022-01-18T15:01:21.104Z</time>
      </trkpt>
      <trkpt lat="44.87704" lon="-0.64226">
        <ele>27.42074</ele>
        <time>2022-01-18T15:01:22.063Z</time>
      </trkpt>
      <trkpt lat="44.87697" lon="-0.64227">
        <ele>27.364204</ele>
        <time>2022-01-18T15:01:22.930Z</time>
      </trkpt>
      <trkpt lat="44.87646" lon="-0.64124">
        <ele>26.589663</ele>
        <time>2022-01-18T15:01:36.530Z</time>
      </trkpt>
      <trkpt lat="44.87645" lon="-0.64122">
        <ele>26.578117</ele>
        <time>2022-01-18T15:01:36.665Z</time>
      </trkpt>
      <trkpt lat="44.87642" lon="-0.64117">
        <ele>26.537031</ele>
        <time>2022-01-18T15:01:37.398Z</time>
      </trkpt>
      <trkpt lat="44.87642" lon="-0.64113">
        <ele>26.512526</ele>
        <time>2022-01-18T15:01:37.841Z</time>
      </trkpt>
      <trkpt lat="44.87641" lon="-0.64112">
        <ele>26.503895</ele>
        <time>2022-01-18T15:01:37.975Z</time>
      </trkpt>
      <trkpt lat="44.8764" lon="-0.64111">
        <ele>26.496307</ele>
        <time>2022-01-18T15:01:38.192Z</time>
      </trkpt>
      <trkpt lat="44.8762" lon="-0.64068">
        <ele>26.175559</ele>
        <time>2022-01-18T15:01:43.305Z</time>
      </trkpt>
      <trkpt lat="44.87617" lon="-0.64063">
        <ele>26.13947</ele>
        <time>2022-01-18T15:01:43.795Z</time>
      </trkpt>
      <trkpt lat="44.87615" lon="-0.64058">
        <ele>26.103891</ele>
        <time>2022-01-18T15:01:44.334Z</time>
      </trkpt>
      <trkpt lat="44.87539" lon="-0.63903">
        <ele>24.897413</ele>
        <time>2022-01-18T15:02:03.480Z</time>
      </trkpt>
      <trkpt lat="44.87538" lon="-0.639">
        <ele>24.875383</ele>
        <time>2022-01-18T15:02:03.756Z</time>
      </trkpt>
      <trkpt lat="44.87537" lon="-0.63898">
        <ele>24.860679</ele>
        <time>2022-01-18T15:02:03.968Z</time>
      </trkpt>
      <trkpt lat="44.87528" lon="-0.63879">
        <ele>24.715619</ele>
        <time>2022-01-18T15:02:06.862Z</time>
      </trkpt>
      <trkpt lat="44.87529" lon="-0.63863">
        <ele>24.613366</ele>
        <time>2022-01-18T15:02:08.666Z</time>
      </trkpt>
      <trkpt lat="44.87531" lon="-0.63858">
        <ele>24.577313</ele>
        <time>2022-01-18T15:02:09.218Z</time>
      </trkpt>
      <trkpt lat="44.87513" lon="-0.63813">
        <ele>24.270275</ele>
        <time>2022-01-18T15:02:14.284Z</time>
      </trkpt>
      <trkpt lat="44.87466" lon="-0.63699">
        <ele>23.65436</ele>
        <time>2022-01-18T15:02:27.205Z</time>
      </trkpt>
      <trkpt lat="44.87435" lon="-0.63635">
        <ele>23.290561</ele>
        <time>2022-01-18T15:02:35.159Z</time>
      </trkpt>
      <trkpt lat="44.87337" lon="-0.63439">
        <ele>22.464971</ele>
        <time>2022-01-18T15:02:59.017Z</time>
      </trkpt>
      <trkpt lat="44.87325" lon="-0.63419">
        <ele>22.379622</ele>
        <time>2022-01-18T15:03:01.778Z</time>
      </trkpt>
      <trkpt lat="44.8731" lon="-0.6339">
        <ele>22.379133</ele>
        <time>2022-01-18T15:03:05.706Z</time>
      </trkpt>
      <trkpt lat="44.87291" lon="-0.63352">
        <ele>22.575188</ele>
        <time>2022-01-18T15:03:11.137Z</time>
      </trkpt>
      <trkpt lat="44.87285" lon="-0.63351">
        <ele>22.610812</ele>
        <time>2022-01-18T15:03:12.241Z</time>
      </trkpt>
      <trkpt lat="44.87277" lon="-0.6334">
        <ele>22.677236</ele>
        <time>2022-01-18T15:03:14.126Z</time>
      </trkpt>
      <trkpt lat="44.87273" lon="-0.63338">
        <ele>22.697306</ele>
        <time>2022-01-18T15:03:14.806Z</time>
      </trkpt>
      <trkpt lat="44.87262" lon="-0.63335">
        <ele>22.763722</ele>
        <time>2022-01-18T15:03:16.993Z</time>
      </trkpt>
      <trkpt lat="44.8726" lon="-0.6333">
        <ele>22.786711</ele>
        <time>2022-01-18T15:03:17.712Z</time>
      </trkpt>
      <trkpt lat="44.87259" lon="-0.63328">
        <ele>22.797219</ele>
        <time>2022-01-18T15:03:18.060Z</time>
      </trkpt>
      <trkpt lat="44.87257" lon="-0.63324">
        <ele>22.818455</ele>
        <time>2022-01-18T15:03:18.786Z</time>
      </trkpt>
      <trkpt lat="44.87255" lon="-0.63319">
        <ele>22.840357</ele>
        <time>2022-01-18T15:03:19.566Z</time>
      </trkpt>
      <trkpt lat="44.87255" lon="-0.63309">
        <ele>22.885008</ele>
        <time>2022-01-18T15:03:20.898Z</time>
      </trkpt>
      <trkpt lat="44.87257" lon="-0.633">
        <ele>22.920451</ele>
        <time>2022-01-18T15:03:22.080Z</time>
      </trkpt>
      <trkpt lat="44.87256" lon="-0.63295">
        <ele>22.944046</ele>
        <time>2022-01-18T15:03:23.007Z</time>
      </trkpt>
      <trkpt lat="44.87246" lon="-0.63271">
        <ele>23.060951</ele>
        <time>2022-01-18T15:03:26.893Z</time>
      </trkpt>
      <trkpt lat="44.87203" lon="-0.63179">
        <ele>23.527995</ele>
        <time>2022-01-18T15:03:42.388Z</time>
      </trkpt>
      <trkpt lat="44.8719" lon="-0.63152">
        <ele>23.675609</ele>
        <time>2022-01-18T15:03:47.137Z</time>
      </trkpt>
      <trkpt lat="44.87186" lon="-0.63144">
        <ele>23.719978</ele>
        <time>2022-01-18T15:03:48.607Z</time>
      </trkpt>
      <trkpt lat="44.8717" lon="-0.63112">
        <ele>23.899385</ele>
        <time>2022-01-18T15:03:54.025Z</time>
      </trkpt>
      <trkpt lat="44.87136" lon="-0.63055">
        <ele>24.235728</ele>
        <time>2022-01-18T15:04:03.872Z</time>
      </trkpt>
      <trkpt lat="44.86729" lon="-0.62458">
        <ele>24.968834</ele>
        <time>2022-01-18T15:05:41.523Z</time>
      </trkpt>
      <trkpt lat="44.86696" lon="-0.62402">
        <ele>24.582042</ele>
        <time>2022-01-18T15:05:49.079Z</time>
      </trkpt>
      <trkpt lat="44.86692" lon="-0.62389">
        <ele>24.506276</ele>
        <time>2022-01-18T15:05:50.549Z</time>
      </trkpt>
      <trkpt lat="44.86675" lon="-0.62363">
        <ele>24.315396</ele>
        <time>2022-01-18T15:05:53.967Z</time>
      </trkpt>
      <trkpt lat="44.86673" lon="-0.62362">
        <ele>24.302936</ele>
        <time>2022-01-18T15:05:54.200Z</time>
      </trkpt>
      <trkpt lat="44.86666" lon="-0.62353">
        <ele>24.232021</ele>
        <time>2022-01-18T15:05:55.473Z</time>
      </trkpt>
      <trkpt lat="44.86659" lon="-0.62343">
        <ele>24.153041</ele>
        <time>2022-01-18T15:05:56.852Z</time>
      </trkpt>
      <trkpt lat="44.86648" lon="-0.62329">
        <ele>24.040715</ele>
        <time>2022-01-18T15:05:58.865Z</time>
      </trkpt>
      <trkpt lat="44.86618" lon="-0.62292">
        <ele>23.742804</ele>
        <time>2022-01-18T15:06:04.263Z</time>
      </trkpt>
      <trkpt lat="44.86601" lon="-0.62268">
        <ele>23.607198</ele>
        <time>2022-01-18T15:06:07.620Z</time>
      </trkpt>
      <trkpt lat="44.86597" lon="-0.62264">
        <ele>23.593393</ele>
        <time>2022-01-18T15:06:08.215Z</time>
      </trkpt>
      <trkpt lat="44.86595" lon="-0.62261">
        <ele>23.581857</ele>
        <time>2022-01-18T15:06:08.730Z</time>
      </trkpt>
      <trkpt lat="44.86589" lon="-0.62255">
        <ele>23.558273</ele>
        <time>2022-01-18T15:06:09.753Z</time>
      </trkpt>
      <trkpt lat="44.86579" lon="-0.62243">
        <ele>23.516367</ele>
        <time>2022-01-18T15:06:11.555Z</time>
      </trkpt>
      <trkpt lat="44.86562" lon="-0.62221">
        <ele>23.440947</ele>
        <time>2022-01-18T15:06:14.790Z</time>
      </trkpt>
      <trkpt lat="44.86548" lon="-0.62204">
        <ele>23.383242</ele>
        <time>2022-01-18T15:06:17.274Z</time>
      </trkpt>
      <trkpt lat="44.86532" lon="-0.62184">
        <ele>23.31326</ele>
        <time>2022-01-18T15:06:20.376Z</time>
      </trkpt>
      <trkpt lat="44.86504" lon="-0.62151">
        <ele>23.194074</ele>
        <time>2022-01-18T15:06:25.891Z</time>
      </trkpt>
      <trkpt lat="44.8647" lon="-0.6211">
        <ele>23.083324</ele>
        <time>2022-01-18T15:06:33.109Z</time>
      </trkpt>
      <trkpt lat="44.86464" lon="-0.62103">
        <ele>23.137293</ele>
        <time>2022-01-18T15:06:34.452Z</time>
      </trkpt>
      <trkpt lat="44.86428" lon="-0.62056">
        <ele>23.461121</ele>
        <time>2022-01-18T15:06:43.078Z</time>
      </trkpt>
      <trkpt lat="44.8642" lon="-0.62047">
        <ele>23.524379</ele>
        <time>2022-01-18T15:06:44.781Z</time>
      </trkpt>
      <trkpt lat="44.86396" lon="-0.62007">
        <ele>23.77278</ele>
        <time>2022-01-18T15:06:51.696Z</time>
      </trkpt>
      <trkpt lat="44.86391" lon="-0.61995">
        <ele>23.840667</ele>
        <time>2022-01-18T15:06:53.645Z</time>
      </trkpt>
      <trkpt lat="44.86374" lon="-0.61954">
        <ele>24.062342</ele>
        <time>2022-01-18T15:07:00.206Z</time>
      </trkpt>
      <trkpt lat="44.86349" lon="-0.61895">
        <ele>24.244538</ele>
        <time>2022-01-18T15:07:09.287Z</time>
      </trkpt>
      <trkpt lat="44.86329" lon="-0.61845">
        <ele>24.234423</ele>
        <time>2022-01-18T15:07:16.407Z</time>
      </trkpt>
      <trkpt lat="44.86322" lon="-0.61828">
        <ele>24.231005</ele>
        <time>2022-01-18T15:07:18.657Z</time>
      </trkpt>
      <trkpt lat="44.86314" lon="-0.61811">
        <ele>24.227373</ele>
        <time>2022-01-18T15:07:21.010Z</time>
      </trkpt>
      <trkpt lat="44.8631" lon="-0.61804">
        <ele>24.225823</ele>
        <time>2022-01-18T15:07:22.034Z</time>
      </trkpt>
      <trkpt lat="44.86302" lon="-0.61801">
        <ele>24.223749</ele>
        <time>2022-01-18T15:07:23.727Z</time>
      </trkpt>
      <trkpt lat="44.86298" lon="-0.61798">
        <ele>24.222483</ele>
        <time>2022-01-18T15:07:24.662Z</time>
      </trkpt>
      <trkpt lat="44.86287" lon="-0.6177">
        <ele>24.216955</ele>
        <time>2022-01-18T15:07:29.057Z</time>
      </trkpt>
      <trkpt lat="44.86278" lon="-0.6175">
        <ele>24.212823</ele>
        <time>2022-01-18T15:07:32.171Z</time>
      </trkpt>
      <trkpt lat="44.86271" lon="-0.61732">
        <ele>24.209064</ele>
        <time>2022-01-18T15:07:34.975Z</time>
      </trkpt>
      <trkpt lat="44.8627" lon="-0.61729">
        <ele>24.20859</ele>
        <time>2022-01-18T15:07:35.328Z</time>
      </trkpt>
      <trkpt lat="44.86277" lon="-0.61723">
        <ele>24.206632</ele>
        <time>2022-01-18T15:07:36.821Z</time>
      </trkpt>
      <trkpt lat="44.86265" lon="-0.61698">
        <ele>24.059657</ele>
        <time>2022-01-18T15:07:39.581Z</time>
      </trkpt>
      <trkpt lat="44.86244" lon="-0.61653">
        <ele>23.659532</ele>
        <time>2022-01-18T15:07:44.762Z</time>
      </trkpt>
      <trkpt lat="44.86235" lon="-0.61638">
        <ele>23.512445</ele>
        <time>2022-01-18T15:07:46.738Z</time>
      </trkpt>
      <trkpt lat="44.86228" lon="-0.61626">
        <ele>23.399886</ele>
        <time>2022-01-18T15:07:48.139Z</time>
      </trkpt>
      <trkpt lat="44.86206" lon="-0.61585">
        <ele>23.01637</ele>
        <time>2022-01-18T15:07:52.955Z</time>
      </trkpt>
      <trkpt lat="44.86199" lon="-0.61574">
        <ele>22.908008</ele>
        <time>2022-01-18T15:07:54.289Z</time>
      </trkpt>
      <trkpt lat="44.86183" lon="-0.61548">
        <ele>22.650228</ele>
        <time>2022-01-18T15:07:57.549Z</time>
      </trkpt>
      <trkpt lat="44.86173" lon="-0.61532">
        <ele>22.498332</ele>
        <time>2022-01-18T15:07:59.485Z</time>
      </trkpt>
      <trkpt lat="44.86171" lon="-0.61528">
        <ele>22.457586</ele>
        <time>2022-01-18T15:08:00.013Z</time>
      </trkpt>
      <trkpt lat="44.86165" lon="-0.61519">
        <ele>22.369293</ele>
        <time>2022-01-18T15:08:01.191Z</time>
      </trkpt>
      <trkpt lat="44.86137" lon="-0.61474">
        <ele>22.226601</ele>
        <time>2022-01-18T15:08:07.080Z</time>
      </trkpt>
      <trkpt lat="44.86134" lon="-0.61469">
        <ele>22.215909</ele>
        <time>2022-01-18T15:08:07.726Z</time>
      </trkpt>
      <trkpt lat="44.86119" lon="-0.61444">
        <ele>22.155953</ele>
        <time>2022-01-18T15:08:11.070Z</time>
      </trkpt>
      <trkpt lat="44.86109" lon="-0.61428">
        <ele>22.117904</ele>
        <time>2022-01-18T15:08:13.265Z</time>
      </trkpt>
      <trkpt lat="44.86108" lon="-0.61427">
        <ele>22.114204</ele>
        <time>2022-01-18T15:08:13.465Z</time>
      </trkpt>
      <trkpt lat="44.86106" lon="-0.61422">
        <ele>22.104883</ele>
        <time>2022-01-18T15:08:13.944Z</time>
      </trkpt>
      <trkpt lat="44.86095" lon="-0.614">
        <ele>22.054576</ele>
        <time>2022-01-18T15:08:16.846Z</time>
      </trkpt>
      <trkpt lat="44.86078" lon="-0.61345">
        <ele>21.946592</ele>
        <time>2022-01-18T15:08:23.456Z</time>
      </trkpt>
      <trkpt lat="44.86068" lon="-0.61305">
        <ele>21.869329</ele>
        <time>2022-01-18T15:08:28.521Z</time>
      </trkpt>
      <trkpt lat="44.86065" lon="-0.61293">
        <ele>21.906171</ele>
        <time>2022-01-18T15:08:30.042Z</time>
      </trkpt>
      <trkpt lat="44.86063" lon="-0.61273">
        <ele>21.984074</ele>
        <time>2022-01-18T15:08:32.424Z</time>
      </trkpt>
      <trkpt lat="44.8606" lon="-0.61272">
        <ele>22.001469</ele>
        <time>2022-01-18T15:08:33.020Z</time>
      </trkpt>
      <trkpt lat="44.86053" lon="-0.61264">
        <ele>22.048159</ele>
        <time>2022-01-18T15:08:34.571Z</time>
      </trkpt>
      <trkpt lat="44.86053" lon="-0.6126">
        <ele>22.063938</ele>
        <time>2022-01-18T15:08:35.141Z</time>
      </trkpt>
      <trkpt lat="44.86053" lon="-0.61256">
        <ele>22.080032</ele>
        <time>2022-01-18T15:08:35.560Z</time>
      </trkpt>
      <trkpt lat="44.86058" lon="-0.61247">
        <ele>22.127007</ele>
        <time>2022-01-18T15:08:36.930Z</time>
      </trkpt>
      <trkpt lat="44.8606" lon="-0.61246">
        <ele>22.138865</ele>
        <time>2022-01-18T15:08:37.240Z</time>
      </trkpt>
      <trkpt lat="44.8606" lon="-0.61232">
        <ele>22.190611</ele>
        <time>2022-01-18T15:08:39.089Z</time>
      </trkpt>
      <trkpt lat="44.86058" lon="-0.61221">
        <ele>22.235675</ele>
        <time>2022-01-18T15:08:40.722Z</time>
      </trkpt>
      <trkpt lat="44.86066" lon="-0.61219">
        <ele>22.277592</ele>
        <time>2022-01-18T15:08:42.441Z</time>
      </trkpt>
      <trkpt lat="44.86069" lon="-0.61218">
        <ele>22.295088</ele>
        <time>2022-01-18T15:08:43.076Z</time>
      </trkpt>
      <trkpt lat="44.86066" lon="-0.61193">
        <ele>22.39153</ele>
        <time>2022-01-18T15:08:47.214Z</time>
      </trkpt>
      <trkpt lat="44.86065" lon="-0.61189">
        <ele>22.408035</ele>
        <time>2022-01-18T15:08:47.982Z</time>
      </trkpt>
      <trkpt lat="44.86062" lon="-0.61184">
        <ele>22.431842</ele>
        <time>2022-01-18T15:08:49.032Z</time>
      </trkpt>
      <trkpt lat="44.86059" lon="-0.61183">
        <ele>22.44853</ele>
        <time>2022-01-18T15:08:49.827Z</time>
      </trkpt>
      <trkpt lat="44.86056" lon="-0.6118">
        <ele>22.467999</ele>
        <time>2022-01-18T15:08:50.537Z</time>
      </trkpt>
      <trkpt lat="44.86052" lon="-0.61171">
        <ele>22.508308</ele>
        <time>2022-01-18T15:08:52.135Z</time>
      </trkpt>
      <trkpt lat="44.86049" lon="-0.6116">
        <ele>22.553277</ele>
        <time>2022-01-18T15:08:53.574Z</time>
      </trkpt>
      <trkpt lat="44.86047" lon="-0.61151">
        <ele>22.589201</ele>
        <time>2022-01-18T15:08:55.026Z</time>
      </trkpt>
      <trkpt lat="44.86047" lon="-0.61149">
        <ele>22.595698</ele>
        <time>2022-01-18T15:08:55.285Z</time>
      </trkpt>
      <trkpt lat="44.8604" lon="-0.61121">
        <ele>22.710859</ele>
        <time>2022-01-18T15:08:58.956Z</time>
      </trkpt>
      <trkpt lat="44.86032" lon="-0.61084">
        <ele>22.832304</ele>
        <time>2022-01-18T15:09:04.060Z</time>
      </trkpt>
      <trkpt lat="44.86028" lon="-0.61065">
        <ele>22.816055</ele>
        <time>2022-01-18T15:09:06.297Z</time>
      </trkpt>
      <trkpt lat="44.86026" lon="-0.61052">
        <ele>22.805617</ele>
        <time>2022-01-18T15:09:08.090Z</time>
      </trkpt>
      <trkpt lat="44.86024" lon="-0.61036">
        <ele>22.791991</ele>
        <time>2022-01-18T15:09:10.122Z</time>
      </trkpt>
      <trkpt lat="44.86015" lon="-0.60974">
        <ele>22.740791</ele>
        <time>2022-01-18T15:09:17.795Z</time>
      </trkpt>
      <trkpt lat="44.86012" lon="-0.60954">
        <ele>22.724546</ele>
        <time>2022-01-18T15:09:20.097Z</time>
      </trkpt>
      <trkpt lat="44.86007" lon="-0.60927">
        <ele>22.701599</ele>
        <time>2022-01-18T15:09:23.071Z</time>
      </trkpt>
      <trkpt lat="44.86" lon="-0.60901">
        <ele>22.679219</ele>
        <time>2022-01-18T15:09:25.833Z</time>
      </trkpt>
      <trkpt lat="44.85997" lon="-0.60889">
        <ele>22.669442</ele>
        <time>2022-01-18T15:09:26.996Z</time>
      </trkpt>
      <trkpt lat="44.85994" lon="-0.60878">
        <ele>22.659589</ele>
        <time>2022-01-18T15:09:28.152Z</time>
      </trkpt>
      <trkpt lat="44.85982" lon="-0.60845">
        <ele>22.609322</ele>
        <time>2022-01-18T15:09:31.712Z</time>
      </trkpt>
      <trkpt lat="44.85964" lon="-0.60801">
        <ele>22.163889</ele>
        <time>2022-01-18T15:09:36.418Z</time>
      </trkpt>
      <trkpt lat="44.85956" lon="-0.60785">
        <ele>22.001303</ele>
        <time>2022-01-18T15:09:38.188Z</time>
      </trkpt>
      <trkpt lat="44.85951" lon="-0.60775">
        <ele>21.895611</ele>
        <time>2022-01-18T15:09:39.350Z</time>
      </trkpt>
      <trkpt lat="44.85929" lon="-0.60731">
        <ele>21.42602</ele>
        <time>2022-01-18T15:09:44.309Z</time>
      </trkpt>
      <trkpt lat="44.85926" lon="-0.60725">
        <ele>21.355047</ele>
        <time>2022-01-18T15:09:44.980Z</time>
      </trkpt>
      <trkpt lat="44.85919" lon="-0.60713">
        <ele>21.226287</ele>
        <time>2022-01-18T15:09:46.365Z</time>
      </trkpt>
      <trkpt lat="44.85884" lon="-0.60653">
        <ele>20.55055</ele>
        <time>2022-01-18T15:09:53.711Z</time>
      </trkpt>
      <trkpt lat="44.85883" lon="-0.60651">
        <ele>20.528553</ele>
        <time>2022-01-18T15:09:53.943Z</time>
      </trkpt>
      <trkpt lat="44.8588" lon="-0.60645">
        <ele>20.460382</ele>
        <time>2022-01-18T15:09:54.629Z</time>
      </trkpt>
      <trkpt lat="44.8587" lon="-0.60626">
        <ele>20.363573</ele>
        <time>2022-01-18T15:09:56.914Z</time>
      </trkpt>
      <trkpt lat="44.85864" lon="-0.60615">
        <ele>20.320645</ele>
        <time>2022-01-18T15:09:58.243Z</time>
      </trkpt>
      <trkpt lat="44.8582" lon="-0.6053">
        <ele>19.989487</ele>
        <time>2022-01-18T15:10:08.712Z</time>
      </trkpt>
      <trkpt lat="44.85814" lon="-0.60519">
        <ele>19.944232</ele>
        <time>2022-01-18T15:10:10.259Z</time>
      </trkpt>
      <trkpt lat="44.8579" lon="-0.60475">
        <ele>19.771694</ele>
        <time>2022-01-18T15:10:16.169Z</time>
      </trkpt>
      <trkpt lat="44.85758" lon="-0.60415">
        <ele>19.634328</ele>
        <time>2022-01-18T15:10:24.370Z</time>
      </trkpt>
      <trkpt lat="44.85756" lon="-0.60411">
        <ele>19.635885</ele>
        <time>2022-01-18T15:10:24.917Z</time>
      </trkpt>
      <trkpt lat="44.85729" lon="-0.60363">
        <ele>19.654065</ele>
        <time>2022-01-18T15:10:31.830Z</time>
      </trkpt>
      <trkpt lat="44.85726" lon="-0.60358">
        <ele>19.656073</ele>
        <time>2022-01-18T15:10:32.647Z</time>
      </trkpt>
      <trkpt lat="44.85681" lon="-0.60301">
        <ele>19.681545</ele>
        <time>2022-01-18T15:10:42.060Z</time>
      </trkpt>
      <trkpt lat="44.85679" lon="-0.603">
        <ele>19.682302</ele>
        <time>2022-01-18T15:10:42.430Z</time>
      </trkpt>
      <trkpt lat="44.85652" lon="-0.60257">
        <ele>19.699316</ele>
        <time>2022-01-18T15:10:48.630Z</time>
      </trkpt>
      <trkpt lat="44.85636" lon="-0.60226">
        <ele>19.60045</ele>
        <time>2022-01-18T15:10:52.989Z</time>
      </trkpt>
      <trkpt lat="44.85615" lon="-0.60191">
        <ele>19.456852</ele>
        <time>2022-01-18T15:10:57.805Z</time>
      </trkpt>
      <trkpt lat="44.85584" lon="-0.60147">
        <ele>19.263092</ele>
        <time>2022-01-18T15:11:04.100Z</time>
      </trkpt>
      <trkpt lat="44.85581" lon="-0.60142">
        <ele>19.240392</ele>
        <time>2022-01-18T15:11:04.808Z</time>
      </trkpt>
      <trkpt lat="44.85573" lon="-0.60133">
        <ele>19.196176</ele>
        <time>2022-01-18T15:11:06.292Z</time>
      </trkpt>
      <trkpt lat="44.85569" lon="-0.60127">
        <ele>19.169321</ele>
        <time>2022-01-18T15:11:07.182Z</time>
      </trkpt>
      <trkpt lat="44.85567" lon="-0.60124">
        <ele>19.156732</ele>
        <time>2022-01-18T15:11:07.600Z</time>
      </trkpt>
      <trkpt lat="44.85561" lon="-0.60117">
        <ele>19.122412</ele>
        <time>2022-01-18T15:11:08.649Z</time>
      </trkpt>
      <trkpt lat="44.85556" lon="-0.6011">
        <ele>19.092809</ele>
        <time>2022-01-18T15:11:09.533Z</time>
      </trkpt>
      <trkpt lat="44.85537" lon="-0.60071">
        <ele>18.944445</ele>
        <time>2022-01-18T15:11:14.209Z</time>
      </trkpt>
      <trkpt lat="44.85522" lon="-0.6004">
        <ele>18.708401</ele>
        <time>2022-01-18T15:11:17.968Z</time>
      </trkpt>
      <trkpt lat="44.8552" lon="-0.60035">
        <ele>18.665524</ele>
        <time>2022-01-18T15:11:18.461Z</time>
      </trkpt>
      <trkpt lat="44.85479" lon="-0.59956">
        <ele>17.908257</ele>
        <time>2022-01-18T15:11:27.709Z</time>
      </trkpt>
      <trkpt lat="44.85465" lon="-0.59929">
        <ele>17.650339</ele>
        <time>2022-01-18T15:11:30.792Z</time>
      </trkpt>
      <trkpt lat="44.85446" lon="-0.59892">
        <ele>17.294676</ele>
        <time>2022-01-18T15:11:35.131Z</time>
      </trkpt>
      <trkpt lat="44.85443" lon="-0.5988">
        <ele>17.200312</ele>
        <time>2022-01-18T15:11:36.291Z</time>
      </trkpt>
      <trkpt lat="44.85438" lon="-0.59864">
        <ele>17.066837</ele>
        <time>2022-01-18T15:11:37.883Z</time>
      </trkpt>
      <trkpt lat="44.85435" lon="-0.59853">
        <ele>16.968072</ele>
        <time>2022-01-18T15:11:39.079Z</time>
      </trkpt>
      <trkpt lat="44.85428" lon="-0.59834">
        <ele>16.861663</ele>
        <time>2022-01-18T15:11:41.054Z</time>
      </trkpt>
      <trkpt lat="44.85424" lon="-0.59819">
        <ele>16.787629</ele>
        <time>2022-01-18T15:11:42.607Z</time>
      </trkpt>
      <trkpt lat="44.85404" lon="-0.59754">
        <ele>16.455031</ele>
        <time>2022-01-18T15:11:49.488Z</time>
      </trkpt>
      <trkpt lat="44.85398" lon="-0.59728">
        <ele>16.331776</ele>
        <time>2022-01-18T15:11:52.073Z</time>
      </trkpt>
      <trkpt lat="44.85386" lon="-0.59674">
        <ele>16.06777</ele>
        <time>2022-01-18T15:11:57.772Z</time>
      </trkpt>
      <trkpt lat="44.8538" lon="-0.5965">
        <ele>15.950713</ele>
        <time>2022-01-18T15:12:00.386Z</time>
      </trkpt>
      <trkpt lat="44.85366" lon="-0.5959">
        <ele>15.752725</ele>
        <time>2022-01-18T15:12:07.302Z</time>
      </trkpt>
      <trkpt lat="44.85363" lon="-0.59581">
        <ele>15.748419</ele>
        <time>2022-01-18T15:12:08.234Z</time>
      </trkpt>
      <trkpt lat="44.85358" lon="-0.59566">
        <ele>15.740764</ele>
        <time>2022-01-18T15:12:10.296Z</time>
      </trkpt>
      <trkpt lat="44.85321" lon="-0.59429">
        <ele>15.673982</ele>
        <time>2022-01-18T15:12:26.491Z</time>
      </trkpt>
      <trkpt lat="44.85317" lon="-0.59414">
        <ele>15.666776</ele>
        <time>2022-01-18T15:12:28.365Z</time>
      </trkpt>
      <trkpt lat="44.85315" lon="-0.59404">
        <ele>15.662144</ele>
        <time>2022-01-18T15:12:29.462Z</time>
      </trkpt>
      <trkpt lat="44.85315" lon="-0.59389">
        <ele>15.655176</ele>
        <time>2022-01-18T15:12:30.981Z</time>
      </trkpt>
      <trkpt lat="44.85321" lon="-0.59385">
        <ele>15.651118</ele>
        <time>2022-01-18T15:12:31.950Z</time>
      </trkpt>
      <trkpt lat="44.85327" lon="-0.59379">
        <ele>15.623243</ele>
        <time>2022-01-18T15:12:33.199Z</time>
      </trkpt>
      <trkpt lat="44.85366" lon="-0.59351">
        <ele>15.260378</ele>
        <time>2022-01-18T15:12:39.441Z</time>
      </trkpt>
      <trkpt lat="44.85371" lon="-0.59347">
        <ele>15.21134</ele>
        <time>2022-01-18T15:12:40.274Z</time>
      </trkpt>
      <trkpt lat="44.85377" lon="-0.59342">
        <ele>15.1537</ele>
        <time>2022-01-18T15:12:41.243Z</time>
      </trkpt>
      <trkpt lat="44.8538" lon="-0.5934">
        <ele>15.128164</ele>
        <time>2022-01-18T15:12:41.658Z</time>
      </trkpt>
      <trkpt lat="44.85382" lon="-0.59337">
        <ele>15.100545</ele>
        <time>2022-01-18T15:12:42.103Z</time>
      </trkpt>
      <trkpt lat="44.85383" lon="-0.59332">
        <ele>15.071727</ele>
        <time>2022-01-18T15:12:42.589Z</time>
      </trkpt>
      <trkpt lat="44.85383" lon="-0.59327">
        <ele>15.041408</ele>
        <time>2022-01-18T15:12:43.102Z</time>
      </trkpt>
      <trkpt lat="44.85379" lon="-0.5932">
        <ele>14.989762</ele>
        <time>2022-01-18T15:12:43.998Z</time>
      </trkpt>
      <trkpt lat="44.85363" lon="-0.59295">
        <ele>14.786827</ele>
        <time>2022-01-18T15:12:47.318Z</time>
      </trkpt>
      <trkpt lat="44.85358" lon="-0.59288">
        <ele>14.731461</ele>
        <time>2022-01-18T15:12:48.246Z</time>
      </trkpt>
      <trkpt lat="44.85354" lon="-0.59283">
        <ele>14.688739</ele>
        <time>2022-01-18T15:12:48.959Z</time>
      </trkpt>
      <trkpt lat="44.8534" lon="-0.59262">
        <ele>14.514006</ele>
        <time>2022-01-18T15:12:51.772Z</time>
      </trkpt>
      <trkpt lat="44.85337" lon="-0.59255">
        <ele>14.468461</ele>
        <time>2022-01-18T15:12:52.482Z</time>
      </trkpt>
      <trkpt lat="44.85335" lon="-0.59248">
        <ele>14.419954</ele>
        <time>2022-01-18T15:12:53.211Z</time>
      </trkpt>
      <trkpt lat="44.85322" lon="-0.59207">
        <ele>14.155025</ele>
        <time>2022-01-18T15:12:57.293Z</time>
      </trkpt>
      <trkpt lat="44.85318" lon="-0.59193">
        <ele>14.035072</ele>
        <time>2022-01-18T15:12:58.687Z</time>
      </trkpt>
      <trkpt lat="44.85281" lon="-0.59075">
        <ele>12.995596</ele>
        <time>2022-01-18T15:13:10.585Z</time>
      </trkpt>
      <trkpt lat="44.85273" lon="-0.59049">
        <ele>12.766698</ele>
        <time>2022-01-18T15:13:13.250Z</time>
      </trkpt>
      <trkpt lat="44.85258" lon="-0.59">
        <ele>12.337087</ele>
        <time>2022-01-18T15:13:18.413Z</time>
      </trkpt>
      <trkpt lat="44.85168" lon="-0.58711">
        <ele>10.779347</ele>
        <time>2022-01-18T15:13:49.956Z</time>
      </trkpt>
      <trkpt lat="44.85162" lon="-0.58694">
        <ele>10.692614</ele>
        <time>2022-01-18T15:13:51.733Z</time>
      </trkpt>
      <trkpt lat="44.85145" lon="-0.58635">
        <ele>10.389197</ele>
        <time>2022-01-18T15:13:58.091Z</time>
      </trkpt>
      <trkpt lat="44.85136" lon="-0.58607">
        <ele>10.245234</ele>
        <time>2022-01-18T15:14:01.077Z</time>
      </trkpt>
      <trkpt lat="44.85131" lon="-0.5859">
        <ele>10.156489</ele>
        <time>2022-01-18T15:14:02.899Z</time>
      </trkpt>
      <trkpt lat="44.85128" lon="-0.58583">
        <ele>10.116056</ele>
        <time>2022-01-18T15:14:03.735Z</time>
      </trkpt>
      <trkpt lat="44.85111" lon="-0.58525">
        <ele>9.819642</ele>
        <time>2022-01-18T15:14:09.900Z</time>
      </trkpt>
      <trkpt lat="44.85096" lon="-0.58475">
        <ele>9.739396</ele>
        <time>2022-01-18T15:14:15.383Z</time>
      </trkpt>
      <trkpt lat="44.85091" lon="-0.5846">
        <ele>9.745282</ele>
        <time>2022-01-18T15:14:17.207Z</time>
      </trkpt>
      <trkpt lat="44.85089" lon="-0.58453">
        <ele>9.747626</ele>
        <time>2022-01-18T15:14:17.931Z</time>
      </trkpt>
      <trkpt lat="44.85083" lon="-0.58433">
        <ele>9.755131</ele>
        <time>2022-01-18T15:14:20.274Z</time>
      </trkpt>
      <trkpt lat="44.85068" lon="-0.58386">
        <ele>9.772693</ele>
        <time>2022-01-18T15:14:25.971Z</time>
      </trkpt>
      <trkpt lat="44.85061" lon="-0.58362">
        <ele>9.78149</ele>
        <time>2022-01-18T15:14:28.983Z</time>
      </trkpt>
      <trkpt lat="44.85058" lon="-0.58351">
        <ele>9.785889</ele>
        <time>2022-01-18T15:14:30.406Z</time>
      </trkpt>
      <trkpt lat="44.85055" lon="-0.58342">
        <ele>9.789235</ele>
        <time>2022-01-18T15:14:31.610Z</time>
      </trkpt>
      <trkpt lat="44.85042" lon="-0.58301">
        <ele>9.804422</ele>
        <time>2022-01-18T15:14:36.753Z</time>
      </trkpt>
      <trkpt lat="44.85033" lon="-0.58271">
        <ele>9.822945</ele>
        <time>2022-01-18T15:14:41.012Z</time>
      </trkpt>
      <trkpt lat="44.85022" lon="-0.58235">
        <ele>9.900184</ele>
        <time>2022-01-18T15:14:45.447Z</time>
      </trkpt>
      <trkpt lat="44.85014" lon="-0.58209">
        <ele>9.957901</ele>
        <time>2022-01-18T15:14:48.636Z</time>
      </trkpt>
      <trkpt lat="44.85012" lon="-0.58202">
        <ele>9.973416</ele>
        <time>2022-01-18T15:14:49.564Z</time>
      </trkpt>
      <trkpt lat="44.85011" lon="-0.58197">
        <ele>9.983429</ele>
        <time>2022-01-18T15:14:50.304Z</time>
      </trkpt>
      <trkpt lat="44.85012" lon="-0.58185">
        <ele>10.007242</ele>
        <time>2022-01-18T15:14:51.913Z</time>
      </trkpt>
      <trkpt lat="44.85014" lon="-0.5817">
        <ele>10.039266</ele>
        <time>2022-01-18T15:14:53.926Z</time>
      </trkpt>
      <trkpt lat="44.85011" lon="-0.58169">
        <ele>10.046796</ele>
        <time>2022-01-18T15:14:55.782Z</time>
      </trkpt>
      <trkpt lat="44.85005" lon="-0.58173">
        <ele>10.066361</ele>
        <time>2022-01-18T15:15:00.535Z</time>
      </trkpt>
      <trkpt lat="44.85002" lon="-0.58175">
        <ele>10.0752</ele>
        <time>2022-01-18T15:15:02.683Z</time>
      </trkpt>
      <trkpt lat="44.85002" lon="-0.58173">
        <ele>10.07903</ele>
        <time>2022-01-18T15:15:03.171Z</time>
      </trkpt>
      <trkpt lat="44.84994" lon="-0.58152">
        <ele>10.128536</ele>
        <time>2022-01-18T15:15:08.241Z</time>
      </trkpt>
      <trkpt lat="44.84988" lon="-0.58144">
        <ele>10.150618</ele>
        <time>2022-01-18T15:15:10.232Z</time>
      </trkpt>
      <trkpt lat="44.84972" lon="-0.58099">
        <ele>10.252792</ele>
        <time>2022-01-18T15:15:19.701Z</time>
      </trkpt>
      <trkpt lat="44.84968" lon="-0.58093">
        <ele>10.268281</ele>
        <time>2022-01-18T15:15:20.994Z</time>
      </trkpt>
      <trkpt lat="44.84962" lon="-0.58087">
        <ele>10.289559</ele>
        <time>2022-01-18T15:15:22.980Z</time>
      </trkpt>
      <trkpt lat="44.84904" lon="-0.58018">
        <ele>10.492831</ele>
        <time>2022-01-18T15:15:41.738Z</time>
      </trkpt>
      <trkpt lat="44.84889" lon="-0.57993">
        <ele>10.553145</ele>
        <time>2022-01-18T15:15:47.500Z</time>
      </trkpt>
      <trkpt lat="44.84888" lon="-0.57985">
        <ele>10.570285</ele>
        <time>2022-01-18T15:15:49.128Z</time>
      </trkpt>
      <trkpt lat="44.84882" lon="-0.57984">
        <ele>10.586542</ele>
        <time>2022-01-18T15:15:50.660Z</time>
      </trkpt>
      <trkpt lat="44.84856" lon="-0.5797">
        <ele>10.658059</ele>
        <time>2022-01-18T15:15:57.991Z</time>
      </trkpt>
      <trkpt lat="44.84832" lon="-0.5796">
        <ele>10.72506</ele>
        <time>2022-01-18T15:16:05.046Z</time>
      </trkpt>
      <trkpt lat="44.84801" lon="-0.57948">
        <ele>10.834511</ele>
        <time>2022-01-18T15:16:14.312Z</time>
      </trkpt>
      <trkpt lat="44.84793" lon="-0.57923">
        <ele>11.057363</ele>
        <time>2022-01-18T15:16:20.112Z</time>
      </trkpt>
      <trkpt lat="44.84781" lon="-0.57882">
        <ele>11.418783</ele>
        <time>2022-01-18T15:16:29.655Z</time>
      </trkpt>
      <trkpt lat="44.84769" lon="-0.57844">
        <ele>11.751862</ele>
        <time>2022-01-18T15:16:38.309Z</time>
      </trkpt>
      <trkpt lat="44.84759" lon="-0.57812">
        <ele>12.038257</ele>
        <time>2022-01-18T15:16:46.024Z</time>
      </trkpt>
      <trkpt lat="44.84745" lon="-0.57766">
        <ele>12.448021</ele>
        <time>2022-01-18T15:16:57.298Z</time>
      </trkpt>
      <trkpt lat="44.8473" lon="-0.57717">
        <ele>12.864784</ele>
        <time>2022-01-18T15:17:08.868Z</time>
      </trkpt>
      <trkpt lat="44.84727" lon="-0.57709">
        <ele>12.889664</ele>
        <time>2022-01-18T15:17:10.864Z</time>
      </trkpt>
      <trkpt lat="44.8472" lon="-0.57686">
        <ele>12.956194</ele>
        <time>2022-01-18T15:17:16.114Z</time>
      </trkpt>
      <trkpt lat="44.84719" lon="-0.57683">
        <ele>12.964059</ele>
        <time>2022-01-18T15:17:17.575Z</time>
      </trkpt>
      <trkpt lat="44.84726" lon="-0.57679">
        <ele>12.991506</ele>
        <time>2022-01-18T15:17:22.646Z</time>
      </trkpt>
      <trkpt lat="44.84725" lon="-0.57674">
        <ele>13.005208</ele>
        <time>2022-01-18T15:17:25.162Z</time>
      </trkpt>
      <trkpt lat="44.84722" lon="-0.57667">
        <ele>13.027646</ele>
        <time>2022-01-18T15:17:29.306Z</time>
      </trkpt>
      <trkpt lat="44.84717" lon="-0.5767">
        <ele>13.048115</ele>
        <time>2022-01-18T15:17:30.338Z</time>
      </trkpt>
      <trkpt lat="44.84715" lon="-0.57663">
        <ele>13.070475</ele>
        <time>2022-01-18T15:17:31.385Z</time>
      </trkpt>
      <trkpt lat="44.84712" lon="-0.57652">
        <ele>13.100055</ele>
        <time>2022-01-18T15:17:32.693Z</time>
      </trkpt>
      <trkpt lat="44.8471" lon="-0.57648">
        <ele>13.112528</ele>
        <time>2022-01-18T15:17:33.210Z</time>
      </trkpt>
      <trkpt lat="44.84699" lon="-0.57612">
        <ele>13.218927</ele>
        <time>2022-01-18T15:17:37.951Z</time>
      </trkpt>
      <trkpt lat="44.84697" lon="-0.57606">
        <ele>13.235547</ele>
        <time>2022-01-18T15:17:38.643Z</time>
      </trkpt>
      <trkpt lat="44.84673" lon="-0.57529">
        <ele>13.461458</ele>
        <time>2022-01-18T15:17:48.053Z</time>
      </trkpt>
      <trkpt lat="44.84659" lon="-0.57526">
        <ele>13.516185</ele>
        <time>2022-01-18T15:17:50.940Z</time>
      </trkpt>
      <trkpt lat="44.84657" lon="-0.57523">
        <ele>13.529863</ele>
        <time>2022-01-18T15:17:51.621Z</time>
      </trkpt>
      <trkpt lat="44.84631" lon="-0.57517">
        <ele>13.795409</ele>
        <time>2022-01-18T15:17:57.407Z</time>
      </trkpt>
      <trkpt lat="44.84625" lon="-0.57516">
        <ele>13.867211</ele>
        <time>2022-01-18T15:17:58.846Z</time>
      </trkpt>
      <trkpt lat="44.84623" lon="-0.57518">
        <ele>13.89819</ele>
        <time>2022-01-18T15:17:59.392Z</time>
      </trkpt>
      <trkpt lat="44.84617" lon="-0.57517">
        <ele>13.965887</ele>
        <time>2022-01-18T15:18:00.573Z</time>
      </trkpt>
      <trkpt lat="44.84606" lon="-0.57513">
        <ele>14.091651</ele>
        <time>2022-01-18T15:18:03.047Z</time>
      </trkpt>
      <trkpt lat="44.84599" lon="-0.57514">
        <ele>14.163868</ele>
        <time>2022-01-18T15:18:04.308Z</time>
      </trkpt>
      <trkpt lat="44.84582" lon="-0.57549">
        <ele>14.502469</ele>
        <time>2022-01-18T15:18:10.278Z</time>
      </trkpt>
      <trkpt lat="44.84554" lon="-0.57572">
        <ele>14.855891</ele>
        <time>2022-01-18T15:18:17.146Z</time>
      </trkpt>
      <trkpt lat="44.84541" lon="-0.57575">
        <ele>15.00168</ele>
        <time>2022-01-18T15:18:20.212Z</time>
      </trkpt>
      <trkpt lat="44.84534" lon="-0.57575">
        <ele>15.079607</ele>
        <time>2022-01-18T15:18:22.027Z</time>
      </trkpt>
      <trkpt lat="44.84526" lon="-0.57573">
        <ele>15.174394</ele>
        <time>2022-01-18T15:18:23.652Z</time>
      </trkpt>
      <trkpt lat="44.84522" lon="-0.57572">
        <ele>15.220817</ele>
        <time>2022-01-18T15:18:24.707Z</time>
      </trkpt>
      <trkpt lat="44.84514" lon="-0.57566">
        <ele>15.31821</ele>
        <time>2022-01-18T15:18:27.048Z</time>
      </trkpt>
      <trkpt lat="44.84491" lon="-0.57539">
        <ele>15.8279</ele>
        <time>2022-01-18T15:18:34.900Z</time>
      </trkpt>
      <trkpt lat="44.84476" lon="-0.57496">
        <ele>16.743327</ele>
        <time>2022-01-18T15:18:44.282Z</time>
      </trkpt>
      <trkpt lat="44.84465" lon="-0.57488">
        <ele>17.093335</ele>
        <time>2022-01-18T15:18:47.823Z</time>
      </trkpt>
      <trkpt lat="44.84459" lon="-0.57488">
        <ele>17.243147</ele>
        <time>2022-01-18T15:18:49.824Z</time>
      </trkpt>
      <trkpt lat="44.84454" lon="-0.57488">
        <ele>17.376618</ele>
        <time>2022-01-18T15:18:51.521Z</time>
      </trkpt>
      <trkpt lat="44.84453" lon="-0.57484">
        <ele>17.476792</ele>
        <time>2022-01-18T15:18:52.567Z</time>
      </trkpt>
      <trkpt lat="44.84396" lon="-0.57473">
        <ele>19.023035</ele>
        <time>2022-01-18T15:19:10.983Z</time>
      </trkpt>
      <trkpt lat="44.84391" lon="-0.57473">
        <ele>19.153769</ele>
        <time>2022-01-18T15:19:12.750Z</time>
      </trkpt>
      <trkpt lat="44.84387" lon="-0.57473">
        <ele>19.287909</ele>
        <time>2022-01-18T15:19:14.719Z</time>
      </trkpt>
      <trkpt lat="44.84381" lon="-0.57472">
        <ele>19.450265</ele>
        <time>2022-01-18T15:19:16.386Z</time>
      </trkpt>
      <trkpt lat="44.84378" lon="-0.57469">
        <ele>19.52719</ele>
        <time>2022-01-18T15:19:17.143Z</time>
      </trkpt>
      <trkpt lat="44.84369" lon="-0.57468">
        <ele>19.773597</ele>
        <time>2022-01-18T15:19:19.722Z</time>
      </trkpt>
      <trkpt lat="44.84342" lon="-0.57463">
        <ele>20.476496</ele>
        <time>2022-01-18T15:19:28.850Z</time>
      </trkpt>
      <trkpt lat="44.84336" lon="-0.57461">
        <ele>20.539276</ele>
        <time>2022-01-18T15:19:30.188Z</time>
      </trkpt>
      <trkpt lat="44.84331" lon="-0.57459">
        <ele>20.602268</ele>
        <time>2022-01-18T15:19:31.645Z</time>
      </trkpt>
      <trkpt lat="44.84327" lon="-0.57459">
        <ele>20.652768</ele>
        <time>2022-01-18T15:19:32.918Z</time>
      </trkpt>
      <trkpt lat="44.84288" lon="-0.57452">
        <ele>21.109717</ele>
        <time>2022-01-18T15:19:44.360Z</time>
      </trkpt>
      <trkpt lat="44.84285" lon="-0.57452">
        <ele>21.141543</ele>
        <time>2022-01-18T15:19:45.117Z</time>
      </trkpt>
      <trkpt lat="44.84278" lon="-0.5745">
        <ele>21.222795</ele>
        <time>2022-01-18T15:19:47.353Z</time>
      </trkpt>
      <trkpt lat="44.84279" lon="-0.57446">
        <ele>21.262179</ele>
        <time>2022-01-18T15:19:48.175Z</time>
      </trkpt>
      <trkpt lat="44.84279" lon="-0.57442">
        <ele>21.295653</ele>
        <time>2022-01-18T15:19:48.890Z</time>
      </trkpt>
      <trkpt lat="44.8428" lon="-0.57432">
        <ele>21.375077</ele>
        <time>2022-01-18T15:19:50.558Z</time>
      </trkpt>
      <trkpt lat="44.84227" lon="-0.57422">
        <ele>22.005915</ele>
        <time>2022-01-18T15:20:03.586Z</time>
      </trkpt>
      <trkpt lat="44.84219" lon="-0.57421">
        <ele>22.09781</ele>
        <time>2022-01-18T15:20:05.327Z</time>
      </trkpt>
      <trkpt lat="44.84223" lon="-0.57373">
        <ele>22.493659</ele>
        <time>2022-01-18T15:20:12.094Z</time>
      </trkpt>
      <trkpt lat="44.84217" lon="-0.57372">
        <ele>22.49839</ele>
        <time>2022-01-18T15:20:13.265Z</time>
      </trkpt>
      <trkpt lat="44.84215" lon="-0.57372">
        <ele>22.464862</ele>
        <time>2022-01-18T15:20:13.695Z</time>
      </trkpt>
      <trkpt lat="44.84214" lon="-0.57378">
        <ele>22.40085</ele>
        <time>2022-01-18T15:20:16.787Z</time>
      </trkpt>
      <trkpt lat="44.8421" lon="-0.57377">
        <ele>22.333912</ele>
        <time>2022-01-18T15:20:17.625Z</time>
      </trkpt>
      <trkpt lat="44.84184" lon="-0.57373">
        <ele>21.966541</ele>
        <time>2022-01-18T15:20:22.362Z</time>
      </trkpt>
      <trkpt lat="44.84119" lon="-0.57359">
        <ele>21.015994</ele>
        <time>2022-01-18T15:20:33.910Z</time>
      </trkpt>
      <trkpt lat="44.84056" lon="-0.57346">
        <ele>20.084051</ele>
        <time>2022-01-18T15:20:44.771Z</time>
      </trkpt>
      <trkpt lat="44.84024" lon="-0.5734">
        <ele>19.437614</ele>
        <time>2022-01-18T15:20:50.131Z</time>
      </trkpt>
      <trkpt lat="44.84024" lon="-0.57333">
        <ele>19.331257</ele>
        <time>2022-01-18T15:20:50.870Z</time>
      </trkpt>
      <trkpt lat="44.8401" lon="-0.57214">
        <ele>17.329687</ele>
        <time>2022-01-18T15:21:05.282Z</time>
      </trkpt>
      <trkpt lat="44.84008" lon="-0.572">
        <ele>17.108482</ele>
        <time>2022-01-18T15:21:06.882Z</time>
      </trkpt>
      <trkpt lat="44.84008" lon="-0.57195">
        <ele>17.024717</ele>
        <time>2022-01-18T15:21:07.403Z</time>
      </trkpt>
      <trkpt lat="44.83988" lon="-0.57119">
        <ele>15.672905</ele>
        <time>2022-01-18T15:21:17.070Z</time>
      </trkpt>
      <trkpt lat="44.83981" lon="-0.57085">
        <ele>14.875062</ele>
        <time>2022-01-18T15:21:21.177Z</time>
      </trkpt>
      <trkpt lat="44.8398" lon="-0.57081">
        <ele>14.781505</ele>
        <time>2022-01-18T15:21:21.673Z</time>
      </trkpt>
      <trkpt lat="44.83977" lon="-0.57064">
        <ele>14.395013</ele>
        <time>2022-01-18T15:21:23.692Z</time>
      </trkpt>
      <trkpt lat="44.83975" lon="-0.5706">
        <ele>14.287331</ele>
        <time>2022-01-18T15:21:24.264Z</time>
      </trkpt>
      <trkpt lat="44.83965" lon="-0.57052">
        <ele>13.939255</ele>
        <time>2022-01-18T15:21:25.964Z</time>
      </trkpt>
      <trkpt lat="44.8396" lon="-0.57049">
        <ele>13.763221</ele>
        <time>2022-01-18T15:21:26.849Z</time>
      </trkpt>
      <trkpt lat="44.8396" lon="-0.57044">
        <ele>13.658234</ele>
        <time>2022-01-18T15:21:27.390Z</time>
      </trkpt>
      <trkpt lat="44.8396" lon="-0.57037">
        <ele>13.496552</ele>
        <time>2022-01-18T15:21:28.186Z</time>
      </trkpt>
      <trkpt lat="44.83959" lon="-0.57032">
        <ele>13.372941</ele>
        <time>2022-01-18T15:21:28.787Z</time>
      </trkpt>
      <trkpt lat="44.83956" lon="-0.57019">
        <ele>13.084228</ele>
        <time>2022-01-18T15:21:30.304Z</time>
      </trkpt>
      <trkpt lat="44.83957" lon="-0.57013">
        <ele>12.955683</ele>
        <time>2022-01-18T15:21:30.771Z</time>
      </trkpt>
      <trkpt lat="44.83959" lon="-0.57007">
        <ele>12.802202</ele>
        <time>2022-01-18T15:21:31.356Z</time>
      </trkpt>
      <trkpt lat="44.83977" lon="-0.56975">
        <ele>11.903927</ele>
        <time>2022-01-18T15:21:34.944Z</time>
      </trkpt>
      <trkpt lat="44.83985" lon="-0.56955">
        <ele>11.400064</ele>
        <time>2022-01-18T15:21:36.917Z</time>
      </trkpt>
      <trkpt lat="44.83987" lon="-0.56951">
        <ele>11.279469</ele>
        <time>2022-01-18T15:21:37.384Z</time>
      </trkpt>
      <trkpt lat="44.83989" lon="-0.56946">
        <ele>11.155381</ele>
        <time>2022-01-18T15:21:37.845Z</time>
      </trkpt>
      <trkpt lat="44.83994" lon="-0.56932">
        <ele>10.820479</ele>
        <time>2022-01-18T15:21:39.284Z</time>
      </trkpt>
      <trkpt lat="44.83997" lon="-0.56923">
        <ele>10.608273</ele>
        <time>2022-01-18T15:21:40.097Z</time>
      </trkpt>
      <trkpt lat="44.83999" lon="-0.56917">
        <ele>10.45641</ele>
        <time>2022-01-18T15:21:40.850Z</time>
      </trkpt>
      <trkpt lat="44.84003" lon="-0.56905">
        <ele>10.154456</ele>
        <time>2022-01-18T15:21:42.410Z</time>
      </trkpt>
      <trkpt lat="44.8399" lon="-0.56895">
        <ele>9.759329</ele>
        <time>2022-01-18T15:21:44.786Z</time>
      </trkpt>
      <trkpt lat="44.83993" lon="-0.56888">
        <ele>9.610259</ele>
        <time>2022-01-18T15:21:45.652Z</time>
      </trkpt>
      <trkpt lat="44.83995" lon="-0.56881">
        <ele>9.455181</ele>
        <time>2022-01-18T15:21:46.529Z</time>
      </trkpt>
      <trkpt lat="44.83997" lon="-0.56877">
        <ele>9.369571</ele>
        <time>2022-01-18T15:21:47.049Z</time>
      </trkpt>
      <trkpt lat="44.84001" lon="-0.56868">
        <ele>9.154048</ele>
        <time>2022-01-18T15:21:48.285Z</time>
      </trkpt>
      <trkpt lat="44.84005" lon="-0.56857">
        <ele>8.919368</ele>
        <time>2022-01-18T15:21:49.673Z</time>
      </trkpt>
      <trkpt lat="44.84007" lon="-0.56851">
        <ele>8.794146</ele>
        <time>2022-01-18T15:21:50.421Z</time>
      </trkpt>
      <trkpt lat="44.84005" lon="-0.5685">
        <ele>8.739114</ele>
        <time>2022-01-18T15:21:50.675Z</time>
      </trkpt>
      <trkpt lat="44.83962" lon="-0.56816">
        <ele>7.400448</ele>
        <time>2022-01-18T15:21:56.278Z</time>
      </trkpt>
      <trkpt lat="44.83957" lon="-0.56812">
        <ele>7.228377</ele>
        <time>2022-01-18T15:21:57.010Z</time>
      </trkpt>
      <trkpt lat="44.8392" lon="-0.56782">
        <ele>6.064085</ele>
        <time>2022-01-18T15:22:02.090Z</time>
      </trkpt>
      <trkpt lat="44.83918" lon="-0.5678">
        <ele>6.00719</ele>
        <time>2022-01-18T15:22:02.349Z</time>
      </trkpt>
      <trkpt lat="44.83916" lon="-0.56776">
        <ele>5.908805</ele>
        <time>2022-01-18T15:22:02.795Z</time>
      </trkpt>
      <trkpt lat="44.83904" lon="-0.56765">
        <ele>5.519876</ele>
        <time>2022-01-18T15:22:04.714Z</time>
      </trkpt>
      <trkpt lat="44.83897" lon="-0.56759">
        <ele>5.289951</ele>
        <time>2022-01-18T15:22:05.923Z</time>
      </trkpt>
      <trkpt lat="44.83881" lon="-0.56747">
        <ele>5.087221</ele>
        <time>2022-01-18T15:22:08.258Z</time>
      </trkpt>
      <trkpt lat="44.83878" lon="-0.56743">
        <ele>5.038378</ele>
        <time>2022-01-18T15:22:08.874Z</time>
      </trkpt>
      <trkpt lat="44.83863" lon="-0.56729">
        <ele>4.844824</ele>
        <time>2022-01-18T15:22:11.445Z</time>
      </trkpt>
      <trkpt lat="44.83845" lon="-0.5671">
        <ele>4.61159</ele>
        <time>2022-01-18T15:22:14.312Z</time>
      </trkpt>
      <trkpt lat="44.83803" lon="-0.56662">
        <ele>4.026125</ele>
        <time>2022-01-18T15:22:21.555Z</time>
      </trkpt>
      <trkpt lat="44.83714" lon="-0.56554">
        <ele>3.394534</ele>
        <time>2022-01-18T15:22:38.087Z</time>
      </trkpt>
      <trkpt lat="44.8371" lon="-0.56547">
        <ele>3.401419</ele>
        <time>2022-01-18T15:22:39.051Z</time>
      </trkpt>
      <trkpt lat="44.83707" lon="-0.5654">
        <ele>3.407785</ele>
        <time>2022-01-18T15:22:39.910Z</time>
      </trkpt>
      <trkpt lat="44.83706" lon="-0.56534">
        <ele>3.412573</ele>
        <time>2022-01-18T15:22:40.545Z</time>
      </trkpt>
      <trkpt lat="44.83706" lon="-0.56529">
        <ele>3.417065</ele>
        <time>2022-01-18T15:22:41.146Z</time>
      </trkpt>
      <trkpt lat="44.83703" lon="-0.56525">
        <ele>3.421673</ele>
        <time>2022-01-18T15:22:41.826Z</time>
      </trkpt>
      <trkpt lat="44.83699" lon="-0.56521">
        <ele>3.426399</ele>
        <time>2022-01-18T15:22:42.503Z</time>
      </trkpt>
      <trkpt lat="44.83697" lon="-0.56518">
        <ele>3.429659</ele>
        <time>2022-01-18T15:22:42.998Z</time>
      </trkpt>
      <trkpt lat="44.83693" lon="-0.56514">
        <ele>3.435199</ele>
        <time>2022-01-18T15:22:43.797Z</time>
      </trkpt>
      <trkpt lat="44.83696" lon="-0.56512">
        <ele>3.438222</ele>
        <time>2022-01-18T15:22:44.203Z</time>
      </trkpt>
      <trkpt lat="44.83697" lon="-0.5651">
        <ele>3.440407</ele>
        <time>2022-01-18T15:22:44.541Z</time>
      </trkpt>
      <trkpt lat="44.83699" lon="-0.56508">
        <ele>3.442603</ele>
        <time>2022-01-18T15:22:44.851Z</time>
      </trkpt>
      <trkpt lat="44.83981" lon="-0.56048">
        <ele>4.907879</ele>
        <time>2022-01-18T15:24:04.046Z</time>
      </trkpt>
      <trkpt lat="44.83988" lon="-0.56036">
        <ele>4.907879</ele>
        <time>2022-01-18T15:24:06.348Z</time>
      </trkpt>
      <trkpt lat="44.83989" lon="-0.56033">
        <ele>4.907879</ele>
        <time>2022-01-18T15:24:06.715Z</time>
      </trkpt>
      <trkpt lat="44.83989" lon="-0.56031">
        <ele>4.907879</ele>
        <time>2022-01-18T15:24:07.245Z</time>
      </trkpt>
      <trkpt lat="44.83989" lon="-0.56028">
        <ele>4.907879</ele>
        <time>2022-01-18T15:24:07.686Z</time>
      </trkpt>
      <trkpt lat="44.83989" lon="-0.56025">
        <ele>4.907879</ele>
        <time>2022-01-18T15:24:08.021Z</time>
      </trkpt>
      <trkpt lat="44.83983" lon="-0.56019">
        <ele>4.907879</ele>
        <time>2022-01-18T15:24:09.217Z</time>
      </trkpt>
      <trkpt lat="44.83985" lon="-0.56016">
        <ele>4.907879</ele>
        <time>2022-01-18T15:24:09.985Z</time>
      </trkpt>
      <trkpt lat="44.83993" lon="-0.56003">
        <ele>4.907879</ele>
        <time>2022-01-18T15:24:12.986Z</time>
      </trkpt>
      <trkpt lat="44.83995" lon="-0.56005">
        <ele>4.907879</ele>
        <time>2022-01-18T15:24:13.439Z</time>
      </trkpt>
      <trkpt lat="44.83997" lon="-0.56007">
        <ele>4.907879</ele>
        <time>2022-01-18T15:24:14.022Z</time>
      </trkpt>
    </trkseg>
  </trk>
</gpx>